<?xml version="1.0" encoding="UTF-8" standalone="no" ?>
<gpx xmlns="http://www.topografix.com/GPX/1/1" xmlns:xsi="http://www.w3.org/2001/XMLSchema-instance" xsi:schemaLocation="http://www.topografix.com/GPX/1/1 http://www.topografix.com/GPX/1/1/gpx.xsd" version="1.1" creator="VisuGPX - https://www.visugpx.com">
  <metadata>
    <name>Sainte Victoire</name>
    <desc><![CDATA[Circuit 3 jours montagne Ste Victoire]]></desc>
  </metadata>
  <trk>
    <name><![CDATA[JOUQUES Vauvenargues 2013-05-10 09:23]]></name>
    <trkseg>
      <trkpt lat="43.68061" lon="5.67725">
        <ele>426.8</ele>
        <time>2013-05-10T07:27:50Z</time>
      </trkpt>
      <trkpt lat="43.6805" lon="5.67708">
        <ele>426.4</ele>
        <time>2013-05-10T07:28:20Z</time>
      </trkpt>
      <trkpt lat="43.67829" lon="5.6734">
        <ele>416.8</ele>
        <time>2013-05-10T07:30:04Z</time>
      </trkpt>
      <trkpt lat="43.67809" lon="5.67384">
        <ele>467.59997558594</ele>
        <time>2013-05-10T07:30:38Z</time>
      </trkpt>
      <trkpt lat="43.67804" lon="5.67426">
        <ele>482.90002441406</ele>
        <time>2013-05-10T07:31:12Z</time>
      </trkpt>
      <trkpt lat="43.67803" lon="5.67448">
        <ele>469.09997558594</ele>
        <time>2013-05-10T07:32:22Z</time>
      </trkpt>
      <trkpt lat="43.67775" lon="5.67458">
        <ele>463.90002441406</ele>
        <time>2013-05-10T07:32:57Z</time>
      </trkpt>
      <trkpt lat="43.67743" lon="5.67432">
        <ele>463.59997558594</ele>
        <time>2013-05-10T07:33:32Z</time>
      </trkpt>
      <trkpt lat="43.67719" lon="5.67415">
        <ele>467.5</ele>
        <time>2013-05-10T07:35:12Z</time>
      </trkpt>
      <trkpt lat="43.67694" lon="5.67438">
        <ele>451.40002441406</ele>
        <time>2013-05-10T07:35:46Z</time>
      </trkpt>
      <trkpt lat="43.67704" lon="5.67499">
        <ele>457.20001220703</ele>
        <time>2013-05-10T07:36:32Z</time>
      </trkpt>
      <trkpt lat="43.67694" lon="5.67568">
        <ele>473.09997558594</ele>
        <time>2013-05-10T07:37:17Z</time>
      </trkpt>
      <trkpt lat="43.67704" lon="5.67647">
        <ele>461.59997558594</ele>
        <time>2013-05-10T07:38:02Z</time>
      </trkpt>
      <trkpt lat="43.67718" lon="5.67705">
        <ele>465.29998779297</ele>
        <time>2013-05-10T07:38:41Z</time>
      </trkpt>
      <trkpt lat="43.67726" lon="5.67732">
        <ele>445</ele>
        <time>2013-05-10T07:41:22Z</time>
      </trkpt>
      <trkpt lat="43.67728" lon="5.6775">
        <ele>447.29998779297</ele>
        <time>2013-05-10T07:42:04Z</time>
      </trkpt>
      <trkpt lat="43.67687" lon="5.67776">
        <ele>451.90002441406</ele>
        <time>2013-05-10T07:42:41Z</time>
      </trkpt>
      <trkpt lat="43.67663" lon="5.67771">
        <ele>446.59997558594</ele>
        <time>2013-05-10T07:43:07Z</time>
      </trkpt>
      <trkpt lat="43.67637" lon="5.6776">
        <ele>434.29998779297</ele>
        <time>2013-05-10T07:43:35Z</time>
      </trkpt>
      <trkpt lat="43.67613" lon="5.67743">
        <ele>438.29998779297</ele>
        <time>2013-05-10T07:44:00Z</time>
      </trkpt>
      <trkpt lat="43.67593" lon="5.67729">
        <ele>441.40002441406</ele>
        <time>2013-05-10T07:44:24Z</time>
      </trkpt>
      <trkpt lat="43.67576" lon="5.67742">
        <ele>462.29998779297</ele>
        <time>2013-05-10T07:44:58Z</time>
      </trkpt>
      <trkpt lat="43.67566" lon="5.67797">
        <ele>468.40002441406</ele>
        <time>2013-05-10T07:45:33Z</time>
      </trkpt>
      <trkpt lat="43.67559" lon="5.67851">
        <ele>475.09997558594</ele>
        <time>2013-05-10T07:46:07Z</time>
      </trkpt>
      <trkpt lat="43.6755" lon="5.67906">
        <ele>472</ele>
        <time>2013-05-10T07:46:41Z</time>
      </trkpt>
      <trkpt lat="43.67524" lon="5.67925">
        <ele>477.79998779297</ele>
        <time>2013-05-10T07:47:10Z</time>
      </trkpt>
      <trkpt lat="43.6749" lon="5.67896">
        <ele>480.70001220703</ele>
        <time>2013-05-10T07:47:39Z</time>
      </trkpt>
      <trkpt lat="43.67458" lon="5.67872">
        <ele>479.5</ele>
        <time>2013-05-10T07:48:07Z</time>
      </trkpt>
      <trkpt lat="43.67423" lon="5.67856">
        <ele>476.40002441406</ele>
        <time>2013-05-10T07:48:36Z</time>
      </trkpt>
      <trkpt lat="43.6738" lon="5.67852">
        <ele>480</ele>
        <time>2013-05-10T07:49:06Z</time>
      </trkpt>
      <trkpt lat="43.67353" lon="5.67848">
        <ele>479.5</ele>
        <time>2013-05-10T07:49:35Z</time>
      </trkpt>
      <trkpt lat="43.67314" lon="5.67837">
        <ele>481.40002441406</ele>
        <time>2013-05-10T07:50:04Z</time>
      </trkpt>
      <trkpt lat="43.67277" lon="5.67824">
        <ele>479.70001220703</ele>
        <time>2013-05-10T07:50:33Z</time>
      </trkpt>
      <trkpt lat="43.67259" lon="5.6782">
        <ele>491.90002441406</ele>
        <time>2013-05-10T07:51:04Z</time>
      </trkpt>
      <trkpt lat="43.67222" lon="5.67812">
        <ele>484.90002441406</ele>
        <time>2013-05-10T07:51:33Z</time>
      </trkpt>
      <trkpt lat="43.67185" lon="5.67805">
        <ele>479.70001220703</ele>
        <time>2013-05-10T07:52:01Z</time>
      </trkpt>
      <trkpt lat="43.67144" lon="5.67795">
        <ele>484.40002441406</ele>
        <time>2013-05-10T07:52:30Z</time>
      </trkpt>
      <trkpt lat="43.67099" lon="5.67785">
        <ele>475.79998779297</ele>
        <time>2013-05-10T07:53:04Z</time>
      </trkpt>
      <trkpt lat="43.6706" lon="5.67771">
        <ele>476</ele>
        <time>2013-05-10T07:53:32Z</time>
      </trkpt>
      <trkpt lat="43.67019" lon="5.67762">
        <ele>485.59997558594</ele>
        <time>2013-05-10T07:54:02Z</time>
      </trkpt>
      <trkpt lat="43.66977" lon="5.67781">
        <ele>477</ele>
        <time>2013-05-10T07:54:37Z</time>
      </trkpt>
      <trkpt lat="43.66942" lon="5.67804">
        <ele>475.09997558594</ele>
        <time>2013-05-10T07:55:08Z</time>
      </trkpt>
      <trkpt lat="43.66896" lon="5.67832">
        <ele>477.40002441406</ele>
        <time>2013-05-10T07:55:42Z</time>
      </trkpt>
      <trkpt lat="43.66853" lon="5.67863">
        <ele>475.09997558594</ele>
        <time>2013-05-10T07:56:18Z</time>
      </trkpt>
      <trkpt lat="43.66806" lon="5.67874">
        <ele>472.79998779297</ele>
        <time>2013-05-10T07:56:52Z</time>
      </trkpt>
      <trkpt lat="43.66763" lon="5.67863">
        <ele>479.70001220703</ele>
        <time>2013-05-10T07:57:21Z</time>
      </trkpt>
      <trkpt lat="43.66722" lon="5.67849">
        <ele>476.79998779297</ele>
        <time>2013-05-10T07:57:50Z</time>
      </trkpt>
      <trkpt lat="43.66687" lon="5.67839">
        <ele>473.5</ele>
        <time>2013-05-10T07:58:18Z</time>
      </trkpt>
      <trkpt lat="43.66644" lon="5.67827">
        <ele>472.09997558594</ele>
        <time>2013-05-10T07:58:47Z</time>
      </trkpt>
      <trkpt lat="43.666" lon="5.67814">
        <ele>469.40002441406</ele>
        <time>2013-05-10T07:59:21Z</time>
      </trkpt>
      <trkpt lat="43.66568" lon="5.67794">
        <ele>464</ele>
        <time>2013-05-10T07:59:48Z</time>
      </trkpt>
      <trkpt lat="43.66534" lon="5.67761">
        <ele>463.79998779297</ele>
        <time>2013-05-10T08:00:20Z</time>
      </trkpt>
      <trkpt lat="43.66508" lon="5.67717">
        <ele>464.29998779297</ele>
        <time>2013-05-10T08:00:49Z</time>
      </trkpt>
      <trkpt lat="43.66467" lon="5.6769">
        <ele>464.29998779297</ele>
        <time>2013-05-10T08:01:16Z</time>
      </trkpt>
      <trkpt lat="43.66436" lon="5.67659">
        <ele>455.29998779297</ele>
        <time>2013-05-10T08:01:46Z</time>
      </trkpt>
      <trkpt lat="43.664" lon="5.67621">
        <ele>462.90002441406</ele>
        <time>2013-05-10T08:02:13Z</time>
      </trkpt>
      <trkpt lat="43.66385" lon="5.67566">
        <ele>455.20001220703</ele>
        <time>2013-05-10T08:02:48Z</time>
      </trkpt>
      <trkpt lat="43.66387" lon="5.67494">
        <ele>460.70001220703</ele>
        <time>2013-05-10T08:03:22Z</time>
      </trkpt>
      <trkpt lat="43.66351" lon="5.67451">
        <ele>464.79998779297</ele>
        <time>2013-05-10T08:03:54Z</time>
      </trkpt>
      <trkpt lat="43.6631" lon="5.67425">
        <ele>467.20001220703</ele>
        <time>2013-05-10T08:04:29Z</time>
      </trkpt>
      <trkpt lat="43.66266" lon="5.67448">
        <ele>459.09997558594</ele>
        <time>2013-05-10T08:05:04Z</time>
      </trkpt>
      <trkpt lat="43.66249" lon="5.67388">
        <ele>452.70001220703</ele>
        <time>2013-05-10T08:05:39Z</time>
      </trkpt>
      <trkpt lat="43.66229" lon="5.67342">
        <ele>454.09997558594</ele>
        <time>2013-05-10T08:06:07Z</time>
      </trkpt>
      <trkpt lat="43.6621" lon="5.67309">
        <ele>457</ele>
        <time>2013-05-10T08:06:34Z</time>
      </trkpt>
      <trkpt lat="43.662" lon="5.67265">
        <ele>452.90002441406</ele>
        <time>2013-05-10T08:07:09Z</time>
      </trkpt>
      <trkpt lat="43.66196" lon="5.67213">
        <ele>450</ele>
        <time>2013-05-10T08:07:44Z</time>
      </trkpt>
      <trkpt lat="43.66168" lon="5.67161">
        <ele>448.90002441406</ele>
        <time>2013-05-10T08:08:18Z</time>
      </trkpt>
      <trkpt lat="43.66138" lon="5.6712">
        <ele>453.70001220703</ele>
        <time>2013-05-10T08:08:45Z</time>
      </trkpt>
      <trkpt lat="43.6611" lon="5.6702">
        <ele>448.20001220703</ele>
        <time>2013-05-10T08:09:19Z</time>
      </trkpt>
      <trkpt lat="43.66109" lon="5.66953">
        <ele>454.79998779297</ele>
        <time>2013-05-10T08:09:53Z</time>
      </trkpt>
      <trkpt lat="43.66093" lon="5.66903">
        <ele>450.70001220703</ele>
        <time>2013-05-10T08:10:28Z</time>
      </trkpt>
      <trkpt lat="43.66038" lon="5.66843">
        <ele>445.40002441406</ele>
        <time>2013-05-10T08:11:02Z</time>
      </trkpt>
      <trkpt lat="43.66009" lon="5.66763">
        <ele>440.79998779297</ele>
        <time>2013-05-10T08:11:36Z</time>
      </trkpt>
      <trkpt lat="43.65987" lon="5.66706">
        <ele>444.59997558594</ele>
        <time>2013-05-10T08:12:11Z</time>
      </trkpt>
      <trkpt lat="43.65938" lon="5.66687">
        <ele>442.79998779297</ele>
        <time>2013-05-10T08:12:46Z</time>
      </trkpt>
      <trkpt lat="43.65893" lon="5.66671">
        <ele>442.79998779297</ele>
        <time>2013-05-10T08:13:21Z</time>
      </trkpt>
      <trkpt lat="43.65867" lon="5.66655">
        <ele>436.5</ele>
        <time>2013-05-10T08:13:56Z</time>
      </trkpt>
      <trkpt lat="43.65827" lon="5.66653">
        <ele>443</ele>
        <time>2013-05-10T08:14:31Z</time>
      </trkpt>
      <trkpt lat="43.65808" lon="5.66629">
        <ele>437.90002441406</ele>
        <time>2013-05-10T08:15:06Z</time>
      </trkpt>
      <trkpt lat="43.65773" lon="5.66596">
        <ele>436.59997558594</ele>
        <time>2013-05-10T08:15:41Z</time>
      </trkpt>
      <trkpt lat="43.65731" lon="5.66545">
        <ele>446</ele>
        <time>2013-05-10T08:16:15Z</time>
      </trkpt>
      <trkpt lat="43.65696" lon="5.66508">
        <ele>429.29998779297</ele>
        <time>2013-05-10T08:16:50Z</time>
      </trkpt>
      <trkpt lat="43.65661" lon="5.66457">
        <ele>437.09997558594</ele>
        <time>2013-05-10T08:17:24Z</time>
      </trkpt>
      <trkpt lat="43.65623" lon="5.6641">
        <ele>442.40002441406</ele>
        <time>2013-05-10T08:17:59Z</time>
      </trkpt>
      <trkpt lat="43.65595" lon="5.66361">
        <ele>433.29998779297</ele>
        <time>2013-05-10T08:18:34Z</time>
      </trkpt>
      <trkpt lat="43.65559" lon="5.6632">
        <ele>432.90002441406</ele>
        <time>2013-05-10T08:19:08Z</time>
      </trkpt>
      <trkpt lat="43.65517" lon="5.663">
        <ele>434.70001220703</ele>
        <time>2013-05-10T08:19:43Z</time>
      </trkpt>
      <trkpt lat="43.65469" lon="5.66277">
        <ele>428.29998779297</ele>
        <time>2013-05-10T08:20:18Z</time>
      </trkpt>
      <trkpt lat="43.65434" lon="5.66275">
        <ele>421.09997558594</ele>
        <time>2013-05-10T08:20:53Z</time>
      </trkpt>
      <trkpt lat="43.6539" lon="5.66281">
        <ele>422.5</ele>
        <time>2013-05-10T08:21:28Z</time>
      </trkpt>
      <trkpt lat="43.65339" lon="5.66287">
        <ele>420.29998779297</ele>
        <time>2013-05-10T08:22:01Z</time>
      </trkpt>
      <trkpt lat="43.65303" lon="5.66273">
        <ele>420.20001220703</ele>
        <time>2013-05-10T08:22:29Z</time>
      </trkpt>
      <trkpt lat="43.65266" lon="5.66239">
        <ele>419.5</ele>
        <time>2013-05-10T08:23:04Z</time>
      </trkpt>
      <trkpt lat="43.65254" lon="5.66206">
        <ele>413.79998779297</ele>
        <time>2013-05-10T08:23:38Z</time>
      </trkpt>
      <trkpt lat="43.6523" lon="5.66147">
        <ele>414.90002441406</ele>
        <time>2013-05-10T08:24:12Z</time>
      </trkpt>
      <trkpt lat="43.65202" lon="5.66089">
        <ele>413.40002441406</ele>
        <time>2013-05-10T08:24:46Z</time>
      </trkpt>
      <trkpt lat="43.65177" lon="5.66043">
        <ele>409</ele>
        <time>2013-05-10T08:25:21Z</time>
      </trkpt>
      <trkpt lat="43.65159" lon="5.65987">
        <ele>402.5</ele>
        <time>2013-05-10T08:25:57Z</time>
      </trkpt>
      <trkpt lat="43.65143" lon="5.65927">
        <ele>403.90002441406</ele>
        <time>2013-05-10T08:26:32Z</time>
      </trkpt>
      <trkpt lat="43.65164" lon="5.65892">
        <ele>407.90002441406</ele>
        <time>2013-05-10T08:27:07Z</time>
      </trkpt>
      <trkpt lat="43.65145" lon="5.65893">
        <ele>396.70001220703</ele>
        <time>2013-05-10T08:28:15Z</time>
      </trkpt>
      <trkpt lat="43.65155" lon="5.65876">
        <ele>419</ele>
        <time>2013-05-10T08:29:25Z</time>
      </trkpt>
      <trkpt lat="43.65141" lon="5.65913">
        <ele>402.90002441406</ele>
        <time>2013-05-10T08:29:59Z</time>
      </trkpt>
      <trkpt lat="43.65136" lon="5.65929">
        <ele>398.09997558594</ele>
        <time>2013-05-10T08:30:33Z</time>
      </trkpt>
      <trkpt lat="43.65118" lon="5.65873">
        <ele>399.20001220703</ele>
        <time>2013-05-10T08:31:07Z</time>
      </trkpt>
      <trkpt lat="43.65089" lon="5.65821">
        <ele>396.70001220703</ele>
        <time>2013-05-10T08:31:42Z</time>
      </trkpt>
      <trkpt lat="43.65072" lon="5.65751">
        <ele>397.20001220703</ele>
        <time>2013-05-10T08:32:16Z</time>
      </trkpt>
      <trkpt lat="43.6505" lon="5.65693">
        <ele>398.5</ele>
        <time>2013-05-10T08:32:51Z</time>
      </trkpt>
      <trkpt lat="43.65041" lon="5.65627">
        <ele>395.20001220703</ele>
        <time>2013-05-10T08:33:26Z</time>
      </trkpt>
      <trkpt lat="43.64991" lon="5.65519">
        <ele>388.59997558594</ele>
        <time>2013-05-10T08:34:01Z</time>
      </trkpt>
      <trkpt lat="43.6498" lon="5.65432">
        <ele>401.70001220703</ele>
        <time>2013-05-10T08:34:36Z</time>
      </trkpt>
      <trkpt lat="43.64994" lon="5.65372">
        <ele>399.20001220703</ele>
        <time>2013-05-10T08:35:11Z</time>
      </trkpt>
      <trkpt lat="43.65002" lon="5.6533">
        <ele>384.40002441406</ele>
        <time>2013-05-10T08:35:46Z</time>
      </trkpt>
      <trkpt lat="43.64971" lon="5.65176">
        <ele>386.40002441406</ele>
        <time>2013-05-10T08:36:21Z</time>
      </trkpt>
      <trkpt lat="43.65019" lon="5.65049">
        <ele>391.20001220703</ele>
        <time>2013-05-10T08:36:56Z</time>
      </trkpt>
      <trkpt lat="43.6506" lon="5.65027">
        <ele>374.59997558594</ele>
        <time>2013-05-10T08:37:30Z</time>
      </trkpt>
      <trkpt lat="43.65072" lon="5.64975">
        <ele>394.90002441406</ele>
        <time>2013-05-10T08:38:04Z</time>
      </trkpt>
      <trkpt lat="43.65073" lon="5.64922">
        <ele>405.20001220703</ele>
        <time>2013-05-10T08:38:33Z</time>
      </trkpt>
      <trkpt lat="43.65043" lon="5.64878">
        <ele>381.09997558594</ele>
        <time>2013-05-10T08:39:08Z</time>
      </trkpt>
      <trkpt lat="43.65007" lon="5.64839">
        <ele>385.09997558594</ele>
        <time>2013-05-10T08:39:42Z</time>
      </trkpt>
      <trkpt lat="43.64976" lon="5.64825">
        <ele>384.09997558594</ele>
        <time>2013-05-10T08:40:17Z</time>
      </trkpt>
      <trkpt lat="43.64954" lon="5.64819">
        <ele>377.29998779297</ele>
        <time>2013-05-10T08:40:51Z</time>
      </trkpt>
      <trkpt lat="43.64922" lon="5.64777">
        <ele>384.40002441406</ele>
        <time>2013-05-10T08:41:25Z</time>
      </trkpt>
      <trkpt lat="43.64918" lon="5.64721">
        <ele>370.70001220703</ele>
        <time>2013-05-10T08:41:59Z</time>
      </trkpt>
      <trkpt lat="43.64929" lon="5.64644">
        <ele>378</ele>
        <time>2013-05-10T08:42:33Z</time>
      </trkpt>
      <trkpt lat="43.64971" lon="5.64619">
        <ele>378.20001220703</ele>
        <time>2013-05-10T08:43:07Z</time>
      </trkpt>
      <trkpt lat="43.65041" lon="5.64647">
        <ele>374.70001220703</ele>
        <time>2013-05-10T08:43:46Z</time>
      </trkpt>
      <trkpt lat="43.65123" lon="5.64675">
        <ele>376.79998779297</ele>
        <time>2013-05-10T08:44:21Z</time>
      </trkpt>
      <trkpt lat="43.65166" lon="5.64652">
        <ele>364.09997558594</ele>
        <time>2013-05-10T08:44:57Z</time>
      </trkpt>
      <trkpt lat="43.65201" lon="5.64626">
        <ele>368.5</ele>
        <time>2013-05-10T08:45:24Z</time>
      </trkpt>
      <trkpt lat="43.65229" lon="5.64611">
        <ele>359.20001220703</ele>
        <time>2013-05-10T08:45:47Z</time>
      </trkpt>
      <trkpt lat="43.65269" lon="5.64608">
        <ele>363.70001220703</ele>
        <time>2013-05-10T08:46:21Z</time>
      </trkpt>
      <trkpt lat="43.65276" lon="5.64584">
        <ele>366.09997558594</ele>
        <time>2013-05-10T08:46:44Z</time>
      </trkpt>
      <trkpt lat="43.65269" lon="5.64561">
        <ele>403.09997558594</ele>
        <time>2013-05-10T08:48:52Z</time>
      </trkpt>
      <trkpt lat="43.65259" lon="5.64565">
        <ele>404.09997558594</ele>
        <time>2013-05-10T08:49:27Z</time>
      </trkpt>
      <trkpt lat="43.65277" lon="5.6457">
        <ele>389.20001220703</ele>
        <time>2013-05-10T08:50:01Z</time>
      </trkpt>
      <trkpt lat="43.65296" lon="5.64588">
        <ele>367.90002441406</ele>
        <time>2013-05-10T08:50:35Z</time>
      </trkpt>
      <trkpt lat="43.65323" lon="5.64583">
        <ele>374.20001220703</ele>
        <time>2013-05-10T08:51:00Z</time>
      </trkpt>
      <trkpt lat="43.65316" lon="5.64556">
        <ele>382.59997558594</ele>
        <time>2013-05-10T08:52:35Z</time>
      </trkpt>
      <trkpt lat="43.65269" lon="5.64532">
        <ele>390.20001220703</ele>
        <time>2013-05-10T08:53:10Z</time>
      </trkpt>
      <trkpt lat="43.65222" lon="5.64503">
        <ele>382.5</ele>
        <time>2013-05-10T08:53:49Z</time>
      </trkpt>
      <trkpt lat="43.65121" lon="5.64481">
        <ele>390.40002441406</ele>
        <time>2013-05-10T08:54:24Z</time>
      </trkpt>
      <trkpt lat="43.65047" lon="5.64411">
        <ele>388.90002441406</ele>
        <time>2013-05-10T08:54:59Z</time>
      </trkpt>
      <trkpt lat="43.65014" lon="5.64402">
        <ele>384.20001220703</ele>
        <time>2013-05-10T08:55:34Z</time>
      </trkpt>
      <trkpt lat="43.64988" lon="5.64402">
        <ele>389.59997558594</ele>
        <time>2013-05-10T08:56:08Z</time>
      </trkpt>
      <trkpt lat="43.64943" lon="5.64393">
        <ele>401.40002441406</ele>
        <time>2013-05-10T08:56:42Z</time>
      </trkpt>
      <trkpt lat="43.64901" lon="5.6439">
        <ele>397.09997558594</ele>
        <time>2013-05-10T08:57:17Z</time>
      </trkpt>
      <trkpt lat="43.64859" lon="5.64398">
        <ele>405.09997558594</ele>
        <time>2013-05-10T08:57:52Z</time>
      </trkpt>
      <trkpt lat="43.64825" lon="5.6439">
        <ele>413.29998779297</ele>
        <time>2013-05-10T08:58:27Z</time>
      </trkpt>
      <trkpt lat="43.64789" lon="5.6442">
        <ele>410.29998779297</ele>
        <time>2013-05-10T08:59:02Z</time>
      </trkpt>
      <trkpt lat="43.64761" lon="5.64402">
        <ele>397.20001220703</ele>
        <time>2013-05-10T08:59:37Z</time>
      </trkpt>
      <trkpt lat="43.64792" lon="5.64355">
        <ele>377.40002441406</ele>
        <time>2013-05-10T09:00:12Z</time>
      </trkpt>
      <trkpt lat="43.64806" lon="5.64292">
        <ele>388.59997558594</ele>
        <time>2013-05-10T09:00:46Z</time>
      </trkpt>
      <trkpt lat="43.64831" lon="5.64263">
        <ele>398.20001220703</ele>
        <time>2013-05-10T09:01:09Z</time>
      </trkpt>
      <trkpt lat="43.64856" lon="5.64235">
        <ele>383.79998779297</ele>
        <time>2013-05-10T09:01:32Z</time>
      </trkpt>
      <trkpt lat="43.64873" lon="5.64184">
        <ele>398.20001220703</ele>
        <time>2013-05-10T09:01:57Z</time>
      </trkpt>
      <trkpt lat="43.6489" lon="5.64147">
        <ele>379.40002441406</ele>
        <time>2013-05-10T09:02:32Z</time>
      </trkpt>
      <trkpt lat="43.64895" lon="5.64115">
        <ele>384.09997558594</ele>
        <time>2013-05-10T09:03:07Z</time>
      </trkpt>
      <trkpt lat="43.64919" lon="5.64055">
        <ele>387.20001220703</ele>
        <time>2013-05-10T09:03:34Z</time>
      </trkpt>
      <trkpt lat="43.64926" lon="5.64015">
        <ele>375.29998779297</ele>
        <time>2013-05-10T09:03:56Z</time>
      </trkpt>
      <trkpt lat="43.64913" lon="5.6396">
        <ele>373.5</ele>
        <time>2013-05-10T09:04:27Z</time>
      </trkpt>
      <trkpt lat="43.64924" lon="5.63935">
        <ele>360.09997558594</ele>
        <time>2013-05-10T09:04:48Z</time>
      </trkpt>
      <trkpt lat="43.64936" lon="5.63869">
        <ele>379.40002441406</ele>
        <time>2013-05-10T09:05:13Z</time>
      </trkpt>
      <trkpt lat="43.64948" lon="5.63832">
        <ele>342</ele>
        <time>2013-05-10T09:05:33Z</time>
      </trkpt>
      <trkpt lat="43.64921" lon="5.63775">
        <ele>372.09997558594</ele>
        <time>2013-05-10T09:06:08Z</time>
      </trkpt>
      <trkpt lat="43.64901" lon="5.63743">
        <ele>366.09997558594</ele>
        <time>2013-05-10T09:06:32Z</time>
      </trkpt>
      <trkpt lat="43.64909" lon="5.63693">
        <ele>376.59997558594</ele>
        <time>2013-05-10T09:07:01Z</time>
      </trkpt>
      <trkpt lat="43.64936" lon="5.63654">
        <ele>364</ele>
        <time>2013-05-10T09:07:28Z</time>
      </trkpt>
      <trkpt lat="43.64945" lon="5.63616">
        <ele>361.09997558594</ele>
        <time>2013-05-10T09:07:51Z</time>
      </trkpt>
      <trkpt lat="43.64915" lon="5.63575">
        <ele>355</ele>
        <time>2013-05-10T09:08:26Z</time>
      </trkpt>
      <trkpt lat="43.64877" lon="5.63542">
        <ele>359.70001220703</ele>
        <time>2013-05-10T09:09:01Z</time>
      </trkpt>
      <trkpt lat="43.64845" lon="5.63516">
        <ele>353.70001220703</ele>
        <time>2013-05-10T09:09:33Z</time>
      </trkpt>
      <trkpt lat="43.64813" lon="5.63486">
        <ele>353.5</ele>
        <time>2013-05-10T09:10:04Z</time>
      </trkpt>
      <trkpt lat="43.64797" lon="5.63471">
        <ele>349</ele>
        <time>2013-05-10T09:10:39Z</time>
      </trkpt>
      <trkpt lat="43.64787" lon="5.63467">
        <ele>348.40002441406</ele>
        <time>2013-05-10T09:11:08Z</time>
      </trkpt>
      <trkpt lat="43.6479" lon="5.63454">
        <ele>358.09997558594</ele>
        <time>2013-05-10T09:11:28Z</time>
      </trkpt>
      <trkpt lat="43.64796" lon="5.63416">
        <ele>356.40002441406</ele>
        <time>2013-05-10T09:12:26Z</time>
      </trkpt>
      <trkpt lat="43.64803" lon="5.63396">
        <ele>349.09997558594</ele>
        <time>2013-05-10T09:12:50Z</time>
      </trkpt>
      <trkpt lat="43.64769" lon="5.63385">
        <ele>352.79998779297</ele>
        <time>2013-05-10T09:13:25Z</time>
      </trkpt>
      <trkpt lat="43.64732" lon="5.63428">
        <ele>355.40002441406</ele>
        <time>2013-05-10T09:14:00Z</time>
      </trkpt>
      <trkpt lat="43.64694" lon="5.6346">
        <ele>362.59997558594</ele>
        <time>2013-05-10T09:14:35Z</time>
      </trkpt>
      <trkpt lat="43.64654" lon="5.63487">
        <ele>368.40002441406</ele>
        <time>2013-05-10T09:15:10Z</time>
      </trkpt>
      <trkpt lat="43.64613" lon="5.63513">
        <ele>365.59997558594</ele>
        <time>2013-05-10T09:15:45Z</time>
      </trkpt>
      <trkpt lat="43.64566" lon="5.63518">
        <ele>366.90002441406</ele>
        <time>2013-05-10T09:16:20Z</time>
      </trkpt>
      <trkpt lat="43.64514" lon="5.63506">
        <ele>368.20001220703</ele>
        <time>2013-05-10T09:16:48Z</time>
      </trkpt>
      <trkpt lat="43.64399" lon="5.63477">
        <ele>368</ele>
        <time>2013-05-10T09:17:23Z</time>
      </trkpt>
      <trkpt lat="43.64343" lon="5.63458">
        <ele>375.5</ele>
        <time>2013-05-10T09:17:54Z</time>
      </trkpt>
      <trkpt lat="43.64296" lon="5.63437">
        <ele>380</ele>
        <time>2013-05-10T09:18:29Z</time>
      </trkpt>
      <trkpt lat="43.64255" lon="5.63422">
        <ele>380.20001220703</ele>
        <time>2013-05-10T09:19:01Z</time>
      </trkpt>
      <trkpt lat="43.64208" lon="5.63408">
        <ele>384.79998779297</ele>
        <time>2013-05-10T09:19:36Z</time>
      </trkpt>
      <trkpt lat="43.64197" lon="5.63401">
        <ele>389.59997558594</ele>
        <time>2013-05-10T09:20:02Z</time>
      </trkpt>
      <trkpt lat="43.64181" lon="5.63419">
        <ele>377.79998779297</ele>
        <time>2013-05-10T09:22:37Z</time>
      </trkpt>
      <trkpt lat="43.6417" lon="5.63426">
        <ele>386.20001220703</ele>
        <time>2013-05-10T09:23:12Z</time>
      </trkpt>
      <trkpt lat="43.64177" lon="5.63414">
        <ele>391</ele>
        <time>2013-05-10T09:24:22Z</time>
      </trkpt>
      <trkpt lat="43.64165" lon="5.63404">
        <ele>395.29998779297</ele>
        <time>2013-05-10T09:25:51Z</time>
      </trkpt>
      <trkpt lat="43.64171" lon="5.63418">
        <ele>381.20001220703</ele>
        <time>2013-05-10T09:26:17Z</time>
      </trkpt>
      <trkpt lat="43.64181" lon="5.63422">
        <ele>379.5</ele>
        <time>2013-05-10T09:27:11Z</time>
      </trkpt>
      <trkpt lat="43.64184" lon="5.6341">
        <ele>388.09997558594</ele>
        <time>2013-05-10T09:30:19Z</time>
      </trkpt>
      <trkpt lat="43.64177" lon="5.6342">
        <ele>381.5</ele>
        <time>2013-05-10T09:30:42Z</time>
      </trkpt>
      <trkpt lat="43.64164" lon="5.63448">
        <ele>378</ele>
        <time>2013-05-10T09:32:52Z</time>
      </trkpt>
      <trkpt lat="43.6415" lon="5.63472">
        <ele>383.29998779297</ele>
        <time>2013-05-10T09:33:23Z</time>
      </trkpt>
      <trkpt lat="43.64163" lon="5.63456">
        <ele>381.09997558594</ele>
        <time>2013-05-10T09:33:57Z</time>
      </trkpt>
      <trkpt lat="43.64169" lon="5.63432">
        <ele>383.09997558594</ele>
        <time>2013-05-10T09:34:31Z</time>
      </trkpt>
      <trkpt lat="43.64178" lon="5.63421">
        <ele>389</ele>
        <time>2013-05-10T09:34:52Z</time>
      </trkpt>
      <trkpt lat="43.64187" lon="5.63396">
        <ele>386.59997558594</ele>
        <time>2013-05-10T09:36:51Z</time>
      </trkpt>
      <trkpt lat="43.64169" lon="5.63343">
        <ele>381.09997558594</ele>
        <time>2013-05-10T09:37:25Z</time>
      </trkpt>
      <trkpt lat="43.64147" lon="5.63303">
        <ele>378.70001220703</ele>
        <time>2013-05-10T09:37:56Z</time>
      </trkpt>
      <trkpt lat="43.64118" lon="5.63257">
        <ele>379.79998779297</ele>
        <time>2013-05-10T09:38:31Z</time>
      </trkpt>
      <trkpt lat="43.64099" lon="5.63205">
        <ele>372.59997558594</ele>
        <time>2013-05-10T09:39:06Z</time>
      </trkpt>
      <trkpt lat="43.64074" lon="5.63178">
        <ele>367</ele>
        <time>2013-05-10T09:39:31Z</time>
      </trkpt>
      <trkpt lat="43.64051" lon="5.63126">
        <ele>371.40002441406</ele>
        <time>2013-05-10T09:40:06Z</time>
      </trkpt>
      <trkpt lat="43.64041" lon="5.6311">
        <ele>379.29998779297</ele>
        <time>2013-05-10T09:40:30Z</time>
      </trkpt>
      <trkpt lat="43.64025" lon="5.63074">
        <ele>365.20001220703</ele>
        <time>2013-05-10T09:42:00Z</time>
      </trkpt>
      <trkpt lat="43.63989" lon="5.6307">
        <ele>360</ele>
        <time>2013-05-10T09:42:34Z</time>
      </trkpt>
      <trkpt lat="43.63956" lon="5.63056">
        <ele>351.79998779297</ele>
        <time>2013-05-10T09:43:09Z</time>
      </trkpt>
      <trkpt lat="43.63918" lon="5.63059">
        <ele>347.59997558594</ele>
        <time>2013-05-10T09:43:45Z</time>
      </trkpt>
      <trkpt lat="43.6388" lon="5.63068">
        <ele>341.09997558594</ele>
        <time>2013-05-10T09:44:18Z</time>
      </trkpt>
      <trkpt lat="43.63846" lon="5.6307">
        <ele>334.5</ele>
        <time>2013-05-10T09:44:50Z</time>
      </trkpt>
      <trkpt lat="43.63819" lon="5.63063">
        <ele>334.29998779297</ele>
        <time>2013-05-10T09:45:18Z</time>
      </trkpt>
      <trkpt lat="43.63807" lon="5.63063">
        <ele>328.79998779297</ele>
        <time>2013-05-10T09:45:38Z</time>
      </trkpt>
      <trkpt lat="43.63778" lon="5.63053">
        <ele>322.5</ele>
        <time>2013-05-10T09:46:07Z</time>
      </trkpt>
      <trkpt lat="43.63741" lon="5.63041">
        <ele>318.79998779297</ele>
        <time>2013-05-10T09:46:36Z</time>
      </trkpt>
      <trkpt lat="43.63717" lon="5.63034">
        <ele>310.09997558594</ele>
        <time>2013-05-10T09:46:57Z</time>
      </trkpt>
      <trkpt lat="43.63694" lon="5.63044">
        <ele>323.20001220703</ele>
        <time>2013-05-10T09:47:18Z</time>
      </trkpt>
      <trkpt lat="43.63675" lon="5.63062">
        <ele>319.59997558594</ele>
        <time>2013-05-10T09:47:38Z</time>
      </trkpt>
      <trkpt lat="43.63686" lon="5.63064">
        <ele>325.20001220703</ele>
        <time>2013-05-10T09:48:23Z</time>
      </trkpt>
      <trkpt lat="43.63687" lon="5.63087">
        <ele>315.09997558594</ele>
        <time>2013-05-10T09:49:16Z</time>
      </trkpt>
      <trkpt lat="43.63705" lon="5.63118">
        <ele>308.70001220703</ele>
        <time>2013-05-10T09:49:42Z</time>
      </trkpt>
      <trkpt lat="43.63725" lon="5.63157">
        <ele>319.70001220703</ele>
        <time>2013-05-10T09:50:06Z</time>
      </trkpt>
      <trkpt lat="43.63733" lon="5.63198">
        <ele>305.5</ele>
        <time>2013-05-10T09:50:28Z</time>
      </trkpt>
      <trkpt lat="43.63737" lon="5.63217">
        <ele>304.29998779297</ele>
        <time>2013-05-10T09:50:54Z</time>
      </trkpt>
      <trkpt lat="43.63751" lon="5.6326">
        <ele>312.70001220703</ele>
        <time>2013-05-10T09:51:14Z</time>
      </trkpt>
      <trkpt lat="43.63747" lon="5.6323">
        <ele>307.79998779297</ele>
        <time>2013-05-10T09:51:42Z</time>
      </trkpt>
      <trkpt lat="43.63746" lon="5.63205">
        <ele>307.70001220703</ele>
        <time>2013-05-10T09:52:09Z</time>
      </trkpt>
      <trkpt lat="43.63741" lon="5.63243">
        <ele>316.90002441406</ele>
        <time>2013-05-10T09:53:14Z</time>
      </trkpt>
      <trkpt lat="43.63755" lon="5.63256">
        <ele>304.20001220703</ele>
        <time>2013-05-10T09:53:33Z</time>
      </trkpt>
      <trkpt lat="43.63758" lon="5.63303">
        <ele>305.29998779297</ele>
        <time>2013-05-10T09:53:59Z</time>
      </trkpt>
      <trkpt lat="43.63752" lon="5.63329">
        <ele>313.5</ele>
        <time>2013-05-10T09:54:22Z</time>
      </trkpt>
      <trkpt lat="43.63731" lon="5.63336">
        <ele>308.09997558594</ele>
        <time>2013-05-10T09:55:32Z</time>
      </trkpt>
      <trkpt lat="43.63719" lon="5.6336">
        <ele>306.70001220703</ele>
        <time>2013-05-10T09:56:21Z</time>
      </trkpt>
      <trkpt lat="43.63699" lon="5.63413">
        <ele>310.40002441406</ele>
        <time>2013-05-10T09:56:49Z</time>
      </trkpt>
      <trkpt lat="43.63697" lon="5.6346">
        <ele>295.90002441406</ele>
        <time>2013-05-10T09:57:14Z</time>
      </trkpt>
      <trkpt lat="43.63686" lon="5.63498">
        <ele>307.59997558594</ele>
        <time>2013-05-10T09:57:41Z</time>
      </trkpt>
      <trkpt lat="43.63674" lon="5.63531">
        <ele>313</ele>
        <time>2013-05-10T09:58:05Z</time>
      </trkpt>
      <trkpt lat="43.63679" lon="5.63547">
        <ele>346.70001220703</ele>
        <time>2013-05-10T09:58:25Z</time>
      </trkpt>
      <trkpt lat="43.63676" lon="5.63532">
        <ele>313</ele>
        <time>2013-05-10T09:58:45Z</time>
      </trkpt>
      <trkpt lat="43.63665" lon="5.63517">
        <ele>333</ele>
        <time>2013-05-10T09:59:57Z</time>
      </trkpt>
      <trkpt lat="43.63635" lon="5.63531">
        <ele>323.29998779297</ele>
        <time>2013-05-10T10:00:18Z</time>
      </trkpt>
      <trkpt lat="43.63626" lon="5.6356">
        <ele>308.09997558594</ele>
        <time>2013-05-10T10:00:38Z</time>
      </trkpt>
      <trkpt lat="43.63611" lon="5.63599">
        <ele>307.09997558594</ele>
        <time>2013-05-10T10:00:59Z</time>
      </trkpt>
      <trkpt lat="43.63599" lon="5.63639">
        <ele>302.70001220703</ele>
        <time>2013-05-10T10:01:22Z</time>
      </trkpt>
      <trkpt lat="43.63602" lon="5.63668">
        <ele>301.79998779297</ele>
        <time>2013-05-10T10:01:42Z</time>
      </trkpt>
      <trkpt lat="43.63602" lon="5.63718">
        <ele>300.20001220703</ele>
        <time>2013-05-10T10:02:02Z</time>
      </trkpt>
      <trkpt lat="43.63599" lon="5.63769">
        <ele>308.29998779297</ele>
        <time>2013-05-10T10:02:24Z</time>
      </trkpt>
      <trkpt lat="43.63614" lon="5.6378">
        <ele>319.20001220703</ele>
        <time>2013-05-10T10:02:44Z</time>
      </trkpt>
      <trkpt lat="43.63601" lon="5.63769">
        <ele>339.40002441406</ele>
        <time>2013-05-10T10:03:05Z</time>
      </trkpt>
      <trkpt lat="43.63606" lon="5.63757">
        <ele>334.09997558594</ele>
        <time>2013-05-10T10:03:26Z</time>
      </trkpt>
      <trkpt lat="43.63593" lon="5.63749">
        <ele>327.59997558594</ele>
        <time>2013-05-10T10:03:49Z</time>
      </trkpt>
      <trkpt lat="43.63595" lon="5.63773">
        <ele>315.79998779297</ele>
        <time>2013-05-10T10:04:10Z</time>
      </trkpt>
      <trkpt lat="43.63581" lon="5.63778">
        <ele>321</ele>
        <time>2013-05-10T10:04:51Z</time>
      </trkpt>
      <trkpt lat="43.63591" lon="5.63787">
        <ele>316.70001220703</ele>
        <time>2013-05-10T10:05:49Z</time>
      </trkpt>
      <trkpt lat="43.63596" lon="5.63765">
        <ele>300</ele>
        <time>2013-05-10T10:07:08Z</time>
      </trkpt>
      <trkpt lat="43.63612" lon="5.63766">
        <ele>333.20001220703</ele>
        <time>2013-05-10T10:07:50Z</time>
      </trkpt>
      <trkpt lat="43.63595" lon="5.63775">
        <ele>315</ele>
        <time>2013-05-10T10:09:17Z</time>
      </trkpt>
      <trkpt lat="43.63587" lon="5.63876">
        <ele>316.70001220703</ele>
        <time>2013-05-10T11:34:30Z</time>
      </trkpt>
      <trkpt lat="43.63589" lon="5.63917">
        <ele>315.90002441406</ele>
        <time>2013-05-10T11:34:58Z</time>
      </trkpt>
      <trkpt lat="43.63586" lon="5.63965">
        <ele>319.40002441406</ele>
        <time>2013-05-10T11:35:26Z</time>
      </trkpt>
      <trkpt lat="43.63573" lon="5.64002">
        <ele>320.90002441406</ele>
        <time>2013-05-10T11:35:56Z</time>
      </trkpt>
      <trkpt lat="43.63546" lon="5.63994">
        <ele>316.5</ele>
        <time>2013-05-10T11:36:25Z</time>
      </trkpt>
      <trkpt lat="43.63507" lon="5.63982">
        <ele>313.79998779297</ele>
        <time>2013-05-10T11:36:51Z</time>
      </trkpt>
      <trkpt lat="43.63465" lon="5.63943">
        <ele>356.09997558594</ele>
        <time>2013-05-10T11:37:25Z</time>
      </trkpt>
      <trkpt lat="43.63455" lon="5.63889">
        <ele>364.29998779297</ele>
        <time>2013-05-10T11:37:59Z</time>
      </trkpt>
      <trkpt lat="43.63431" lon="5.63851">
        <ele>384.09997558594</ele>
        <time>2013-05-10T11:38:33Z</time>
      </trkpt>
      <trkpt lat="43.63411" lon="5.63891">
        <ele>362.70001220703</ele>
        <time>2013-05-10T11:39:06Z</time>
      </trkpt>
      <trkpt lat="43.63397" lon="5.63929">
        <ele>344.70001220703</ele>
        <time>2013-05-10T11:39:39Z</time>
      </trkpt>
      <trkpt lat="43.63379" lon="5.63979">
        <ele>354.29998779297</ele>
        <time>2013-05-10T11:40:14Z</time>
      </trkpt>
      <trkpt lat="43.63357" lon="5.63989">
        <ele>340.29998779297</ele>
        <time>2013-05-10T11:40:37Z</time>
      </trkpt>
      <trkpt lat="43.63317" lon="5.64023">
        <ele>335.59997558594</ele>
        <time>2013-05-10T11:41:09Z</time>
      </trkpt>
      <trkpt lat="43.63288" lon="5.64046">
        <ele>338.90002441406</ele>
        <time>2013-05-10T11:41:41Z</time>
      </trkpt>
      <trkpt lat="43.63249" lon="5.64064">
        <ele>333.79998779297</ele>
        <time>2013-05-10T11:42:14Z</time>
      </trkpt>
      <trkpt lat="43.63193" lon="5.64135">
        <ele>333.29998779297</ele>
        <time>2013-05-10T11:42:44Z</time>
      </trkpt>
      <trkpt lat="43.63167" lon="5.6417">
        <ele>343.20001220703</ele>
        <time>2013-05-10T11:43:12Z</time>
      </trkpt>
      <trkpt lat="43.63145" lon="5.64196">
        <ele>357.59997558594</ele>
        <time>2013-05-10T11:43:47Z</time>
      </trkpt>
      <trkpt lat="43.63107" lon="5.64208">
        <ele>342.29998779297</ele>
        <time>2013-05-10T11:44:18Z</time>
      </trkpt>
      <trkpt lat="43.63071" lon="5.64204">
        <ele>362.29998779297</ele>
        <time>2013-05-10T11:44:45Z</time>
      </trkpt>
      <trkpt lat="43.63018" lon="5.64128">
        <ele>352.79998779297</ele>
        <time>2013-05-10T11:45:19Z</time>
      </trkpt>
      <trkpt lat="43.63001" lon="5.6412">
        <ele>359.20001220703</ele>
        <time>2013-05-10T11:45:53Z</time>
      </trkpt>
      <trkpt lat="43.63018" lon="5.64083">
        <ele>364.90002441406</ele>
        <time>2013-05-10T11:46:20Z</time>
      </trkpt>
      <trkpt lat="43.63017" lon="5.64044">
        <ele>372.79998779297</ele>
        <time>2013-05-10T11:46:52Z</time>
      </trkpt>
      <trkpt lat="43.62989" lon="5.64008">
        <ele>374.59997558594</ele>
        <time>2013-05-10T11:47:26Z</time>
      </trkpt>
      <trkpt lat="43.63008" lon="5.64008">
        <ele>342.70001220703</ele>
        <time>2013-05-10T11:48:14Z</time>
      </trkpt>
      <trkpt lat="43.62981" lon="5.63955">
        <ele>373.20001220703</ele>
        <time>2013-05-10T11:48:40Z</time>
      </trkpt>
      <trkpt lat="43.62954" lon="5.63968">
        <ele>357.20001220703</ele>
        <time>2013-05-10T11:49:11Z</time>
      </trkpt>
      <trkpt lat="43.62981" lon="5.6396">
        <ele>352.70001220703</ele>
        <time>2013-05-10T11:49:41Z</time>
      </trkpt>
      <trkpt lat="43.6296" lon="5.63923">
        <ele>366.09997558594</ele>
        <time>2013-05-10T11:50:15Z</time>
      </trkpt>
      <trkpt lat="43.62951" lon="5.63926">
        <ele>361.29998779297</ele>
        <time>2013-05-10T11:50:50Z</time>
      </trkpt>
      <trkpt lat="43.62923" lon="5.63918">
        <ele>357.90002441406</ele>
        <time>2013-05-10T11:51:21Z</time>
      </trkpt>
      <trkpt lat="43.6289" lon="5.63936">
        <ele>350</ele>
        <time>2013-05-10T11:51:48Z</time>
      </trkpt>
      <trkpt lat="43.62846" lon="5.63929">
        <ele>349.79998779297</ele>
        <time>2013-05-10T11:52:22Z</time>
      </trkpt>
      <trkpt lat="43.62806" lon="5.63941">
        <ele>339</ele>
        <time>2013-05-10T11:52:55Z</time>
      </trkpt>
      <trkpt lat="43.62781" lon="5.63959">
        <ele>329.20001220703</ele>
        <time>2013-05-10T11:53:18Z</time>
      </trkpt>
      <trkpt lat="43.62739" lon="5.63996">
        <ele>342.09997558594</ele>
        <time>2013-05-10T11:53:44Z</time>
      </trkpt>
      <trkpt lat="43.62647" lon="5.64072">
        <ele>340.09997558594</ele>
        <time>2013-05-10T11:54:12Z</time>
      </trkpt>
      <trkpt lat="43.62619" lon="5.6411">
        <ele>338.29998779297</ele>
        <time>2013-05-10T11:54:40Z</time>
      </trkpt>
      <trkpt lat="43.62581" lon="5.64143">
        <ele>344.79998779297</ele>
        <time>2013-05-10T11:55:12Z</time>
      </trkpt>
      <trkpt lat="43.62549" lon="5.64156">
        <ele>335.09997558594</ele>
        <time>2013-05-10T11:55:45Z</time>
      </trkpt>
      <trkpt lat="43.62514" lon="5.64168">
        <ele>336.09997558594</ele>
        <time>2013-05-10T11:56:17Z</time>
      </trkpt>
      <trkpt lat="43.62521" lon="5.64152">
        <ele>337</ele>
        <time>2013-05-10T11:57:16Z</time>
      </trkpt>
      <trkpt lat="43.62514" lon="5.64164">
        <ele>338.20001220703</ele>
        <time>2013-05-10T11:57:48Z</time>
      </trkpt>
      <trkpt lat="43.62487" lon="5.64151">
        <ele>345.40002441406</ele>
        <time>2013-05-10T11:58:43Z</time>
      </trkpt>
      <trkpt lat="43.62429" lon="5.64153">
        <ele>340.20001220703</ele>
        <time>2013-05-10T11:59:06Z</time>
      </trkpt>
      <trkpt lat="43.62405" lon="5.64158">
        <ele>350.09997558594</ele>
        <time>2013-05-10T11:59:30Z</time>
      </trkpt>
      <trkpt lat="43.62373" lon="5.64177">
        <ele>361.5</ele>
        <time>2013-05-10T12:00:05Z</time>
      </trkpt>
      <trkpt lat="43.62332" lon="5.64191">
        <ele>369.29998779297</ele>
        <time>2013-05-10T12:00:39Z</time>
      </trkpt>
      <trkpt lat="43.62288" lon="5.64206">
        <ele>371.29998779297</ele>
        <time>2013-05-10T12:01:14Z</time>
      </trkpt>
      <trkpt lat="43.62252" lon="5.64211">
        <ele>362.90002441406</ele>
        <time>2013-05-10T12:01:48Z</time>
      </trkpt>
      <trkpt lat="43.6221" lon="5.6424">
        <ele>376.59997558594</ele>
        <time>2013-05-10T12:02:23Z</time>
      </trkpt>
      <trkpt lat="43.62171" lon="5.6424">
        <ele>368.59997558594</ele>
        <time>2013-05-10T12:02:57Z</time>
      </trkpt>
      <trkpt lat="43.62132" lon="5.64224">
        <ele>370.59997558594</ele>
        <time>2013-05-10T12:03:31Z</time>
      </trkpt>
      <trkpt lat="43.62075" lon="5.64197">
        <ele>380.09997558594</ele>
        <time>2013-05-10T12:04:05Z</time>
      </trkpt>
      <trkpt lat="43.62021" lon="5.64198">
        <ele>377.29998779297</ele>
        <time>2013-05-10T12:04:39Z</time>
      </trkpt>
      <trkpt lat="43.61982" lon="5.6424">
        <ele>370.09997558594</ele>
        <time>2013-05-10T12:05:12Z</time>
      </trkpt>
      <trkpt lat="43.61932" lon="5.64276">
        <ele>373.90002441406</ele>
        <time>2013-05-10T12:05:47Z</time>
      </trkpt>
      <trkpt lat="43.61883" lon="5.64315">
        <ele>381</ele>
        <time>2013-05-10T12:06:21Z</time>
      </trkpt>
      <trkpt lat="43.61838" lon="5.64348">
        <ele>384</ele>
        <time>2013-05-10T12:06:56Z</time>
      </trkpt>
      <trkpt lat="43.618" lon="5.64372">
        <ele>386</ele>
        <time>2013-05-10T12:07:30Z</time>
      </trkpt>
      <trkpt lat="43.61758" lon="5.64391">
        <ele>386.20001220703</ele>
        <time>2013-05-10T12:08:04Z</time>
      </trkpt>
      <trkpt lat="43.6172" lon="5.64406">
        <ele>381.40002441406</ele>
        <time>2013-05-10T12:08:38Z</time>
      </trkpt>
      <trkpt lat="43.61668" lon="5.64448">
        <ele>392.59997558594</ele>
        <time>2013-05-10T12:09:12Z</time>
      </trkpt>
      <trkpt lat="43.61639" lon="5.64502">
        <ele>390.40002441406</ele>
        <time>2013-05-10T12:09:47Z</time>
      </trkpt>
      <trkpt lat="43.61595" lon="5.64517">
        <ele>393.20001220703</ele>
        <time>2013-05-10T12:10:21Z</time>
      </trkpt>
      <trkpt lat="43.61549" lon="5.64478">
        <ele>391.29998779297</ele>
        <time>2013-05-10T12:10:55Z</time>
      </trkpt>
      <trkpt lat="43.61495" lon="5.64455">
        <ele>404</ele>
        <time>2013-05-10T12:11:29Z</time>
      </trkpt>
      <trkpt lat="43.61451" lon="5.64469">
        <ele>400.09997558594</ele>
        <time>2013-05-10T12:12:03Z</time>
      </trkpt>
      <trkpt lat="43.61401" lon="5.64463">
        <ele>408.20001220703</ele>
        <time>2013-05-10T12:12:37Z</time>
      </trkpt>
      <trkpt lat="43.61357" lon="5.64472">
        <ele>404.5</ele>
        <time>2013-05-10T12:13:11Z</time>
      </trkpt>
      <trkpt lat="43.61313" lon="5.64483">
        <ele>413.70001220703</ele>
        <time>2013-05-10T12:13:45Z</time>
      </trkpt>
      <trkpt lat="43.61264" lon="5.64492">
        <ele>420.5</ele>
        <time>2013-05-10T12:14:19Z</time>
      </trkpt>
      <trkpt lat="43.61132" lon="5.64732">
        <ele>403.40002441406</ele>
        <time>2013-05-10T12:18:37Z</time>
      </trkpt>
      <trkpt lat="43.61136" lon="5.64777">
        <ele>402.59997558594</ele>
        <time>2013-05-10T12:19:00Z</time>
      </trkpt>
      <trkpt lat="43.61136" lon="5.64828">
        <ele>402</ele>
        <time>2013-05-10T12:19:23Z</time>
      </trkpt>
      <trkpt lat="43.61144" lon="5.64875">
        <ele>396.29998779297</ele>
        <time>2013-05-10T12:19:46Z</time>
      </trkpt>
      <trkpt lat="43.61137" lon="5.64906">
        <ele>400.79998779297</ele>
        <time>2013-05-10T12:20:08Z</time>
      </trkpt>
      <trkpt lat="43.61121" lon="5.64898">
        <ele>410.90002441406</ele>
        <time>2013-05-10T12:20:34Z</time>
      </trkpt>
      <trkpt lat="43.61075" lon="5.64893">
        <ele>418.90002441406</ele>
        <time>2013-05-10T12:21:03Z</time>
      </trkpt>
      <trkpt lat="43.61046" lon="5.6485">
        <ele>426.29998779297</ele>
        <time>2013-05-10T12:21:34Z</time>
      </trkpt>
      <trkpt lat="43.61002" lon="5.64845">
        <ele>430.59997558594</ele>
        <time>2013-05-10T12:22:04Z</time>
      </trkpt>
      <trkpt lat="43.60972" lon="5.64886">
        <ele>415.5</ele>
        <time>2013-05-10T12:22:27Z</time>
      </trkpt>
      <trkpt lat="43.60945" lon="5.64915">
        <ele>435.90002441406</ele>
        <time>2013-05-10T12:22:50Z</time>
      </trkpt>
      <trkpt lat="43.60914" lon="5.64946">
        <ele>434.29998779297</ele>
        <time>2013-05-10T12:23:14Z</time>
      </trkpt>
      <trkpt lat="43.60895" lon="5.64976">
        <ele>437.29998779297</ele>
        <time>2013-05-10T12:23:37Z</time>
      </trkpt>
      <trkpt lat="43.60863" lon="5.65008">
        <ele>432.70001220703</ele>
        <time>2013-05-10T12:24:03Z</time>
      </trkpt>
      <trkpt lat="43.60825" lon="5.65035">
        <ele>434.59997558594</ele>
        <time>2013-05-10T12:24:36Z</time>
      </trkpt>
      <trkpt lat="43.60788" lon="5.65049">
        <ele>418.90002441406</ele>
        <time>2013-05-10T12:25:07Z</time>
      </trkpt>
      <trkpt lat="43.60746" lon="5.65061">
        <ele>428.40002441406</ele>
        <time>2013-05-10T12:25:35Z</time>
      </trkpt>
      <trkpt lat="43.60704" lon="5.65065">
        <ele>443.29998779297</ele>
        <time>2013-05-10T12:26:01Z</time>
      </trkpt>
      <trkpt lat="43.60659" lon="5.65072">
        <ele>432.5</ele>
        <time>2013-05-10T12:26:33Z</time>
      </trkpt>
      <trkpt lat="43.60619" lon="5.65082">
        <ele>426.20001220703</ele>
        <time>2013-05-10T12:26:58Z</time>
      </trkpt>
      <trkpt lat="43.60595" lon="5.65076">
        <ele>423.70001220703</ele>
        <time>2013-05-10T12:27:24Z</time>
      </trkpt>
      <trkpt lat="43.60556" lon="5.65059">
        <ele>435.09997558594</ele>
        <time>2013-05-10T12:27:46Z</time>
      </trkpt>
      <trkpt lat="43.60527" lon="5.65044">
        <ele>422.79998779297</ele>
        <time>2013-05-10T12:28:11Z</time>
      </trkpt>
      <trkpt lat="43.60493" lon="5.65007">
        <ele>412.79998779297</ele>
        <time>2013-05-10T12:28:40Z</time>
      </trkpt>
      <trkpt lat="43.6047" lon="5.64973">
        <ele>404.90002441406</ele>
        <time>2013-05-10T12:29:02Z</time>
      </trkpt>
      <trkpt lat="43.60442" lon="5.64935">
        <ele>426.59997558594</ele>
        <time>2013-05-10T12:29:30Z</time>
      </trkpt>
      <trkpt lat="43.60429" lon="5.64894">
        <ele>425.59997558594</ele>
        <time>2013-05-10T12:29:53Z</time>
      </trkpt>
      <trkpt lat="43.60395" lon="5.64904">
        <ele>421.59997558594</ele>
        <time>2013-05-10T12:30:17Z</time>
      </trkpt>
      <trkpt lat="43.60377" lon="5.64884">
        <ele>429.79998779297</ele>
        <time>2013-05-10T12:30:41Z</time>
      </trkpt>
      <trkpt lat="43.60354" lon="5.64841">
        <ele>414.5</ele>
        <time>2013-05-10T12:31:09Z</time>
      </trkpt>
      <trkpt lat="43.60298" lon="5.64831">
        <ele>425.59997558594</ele>
        <time>2013-05-10T12:31:32Z</time>
      </trkpt>
      <trkpt lat="43.60222" lon="5.6483">
        <ele>421.90002441406</ele>
        <time>2013-05-10T12:31:56Z</time>
      </trkpt>
      <trkpt lat="43.60178" lon="5.64844">
        <ele>425.40002441406</ele>
        <time>2013-05-10T12:32:28Z</time>
      </trkpt>
      <trkpt lat="43.60141" lon="5.64872">
        <ele>431.09997558594</ele>
        <time>2013-05-10T12:32:56Z</time>
      </trkpt>
      <trkpt lat="43.60092" lon="5.64879">
        <ele>425.90002441406</ele>
        <time>2013-05-10T12:33:21Z</time>
      </trkpt>
      <trkpt lat="43.60063" lon="5.64895">
        <ele>425.09997558594</ele>
        <time>2013-05-10T12:33:48Z</time>
      </trkpt>
      <trkpt lat="43.60031" lon="5.64896">
        <ele>430.09997558594</ele>
        <time>2013-05-10T12:34:10Z</time>
      </trkpt>
      <trkpt lat="43.59987" lon="5.64891">
        <ele>442.40002441406</ele>
        <time>2013-05-10T12:34:34Z</time>
      </trkpt>
      <trkpt lat="43.59951" lon="5.64903">
        <ele>430</ele>
        <time>2013-05-10T12:35:05Z</time>
      </trkpt>
      <trkpt lat="43.59902" lon="5.64911">
        <ele>423.79998779297</ele>
        <time>2013-05-10T12:35:34Z</time>
      </trkpt>
      <trkpt lat="43.59854" lon="5.64913">
        <ele>433.40002441406</ele>
        <time>2013-05-10T12:36:05Z</time>
      </trkpt>
      <trkpt lat="43.59799" lon="5.64939">
        <ele>437.40002441406</ele>
        <time>2013-05-10T12:36:28Z</time>
      </trkpt>
      <trkpt lat="43.59689" lon="5.65014">
        <ele>424.5</ele>
        <time>2013-05-10T12:36:51Z</time>
      </trkpt>
      <trkpt lat="43.59638" lon="5.65068">
        <ele>428.29998779297</ele>
        <time>2013-05-10T12:37:15Z</time>
      </trkpt>
      <trkpt lat="43.59603" lon="5.65089">
        <ele>435</ele>
        <time>2013-05-10T12:37:40Z</time>
      </trkpt>
      <trkpt lat="43.59565" lon="5.65096">
        <ele>420.20001220703</ele>
        <time>2013-05-10T12:38:08Z</time>
      </trkpt>
      <trkpt lat="43.5952" lon="5.65135">
        <ele>411.09997558594</ele>
        <time>2013-05-10T12:38:32Z</time>
      </trkpt>
      <trkpt lat="43.59497" lon="5.65176">
        <ele>437.40002441406</ele>
        <time>2013-05-10T12:39:07Z</time>
      </trkpt>
      <trkpt lat="43.5945" lon="5.65212">
        <ele>433.59997558594</ele>
        <time>2013-05-10T12:39:41Z</time>
      </trkpt>
      <trkpt lat="43.59412" lon="5.65238">
        <ele>441.40002441406</ele>
        <time>2013-05-10T12:40:10Z</time>
      </trkpt>
      <trkpt lat="43.59372" lon="5.65271">
        <ele>425</ele>
        <time>2013-05-10T12:40:38Z</time>
      </trkpt>
      <trkpt lat="43.59343" lon="5.65294">
        <ele>433.09997558594</ele>
        <time>2013-05-10T12:41:02Z</time>
      </trkpt>
      <trkpt lat="43.59294" lon="5.65328">
        <ele>422.09997558594</ele>
        <time>2013-05-10T12:41:37Z</time>
      </trkpt>
      <trkpt lat="43.59254" lon="5.6536">
        <ele>435.90002441406</ele>
        <time>2013-05-10T12:42:10Z</time>
      </trkpt>
      <trkpt lat="43.59221" lon="5.65392">
        <ele>433.40002441406</ele>
        <time>2013-05-10T12:42:35Z</time>
      </trkpt>
      <trkpt lat="43.5917" lon="5.65416">
        <ele>432.20001220703</ele>
        <time>2013-05-10T12:43:08Z</time>
      </trkpt>
      <trkpt lat="43.5913" lon="5.65431">
        <ele>441</ele>
        <time>2013-05-10T12:43:38Z</time>
      </trkpt>
      <trkpt lat="43.59093" lon="5.65441">
        <ele>428.09997558594</ele>
        <time>2013-05-10T12:44:03Z</time>
      </trkpt>
      <trkpt lat="43.59041" lon="5.65452">
        <ele>432</ele>
        <time>2013-05-10T12:44:34Z</time>
      </trkpt>
      <trkpt lat="43.58968" lon="5.65439">
        <ele>445.70001220703</ele>
        <time>2013-05-10T12:45:00Z</time>
      </trkpt>
      <trkpt lat="43.58886" lon="5.65498">
        <ele>432.79998779297</ele>
        <time>2013-05-10T12:45:25Z</time>
      </trkpt>
      <trkpt lat="43.58863" lon="5.65601">
        <ele>417.5</ele>
        <time>2013-05-10T12:45:48Z</time>
      </trkpt>
      <trkpt lat="43.58798" lon="5.65677">
        <ele>422.40002441406</ele>
        <time>2013-05-10T12:46:12Z</time>
      </trkpt>
      <trkpt lat="43.5877" lon="5.65716">
        <ele>412.70001220703</ele>
        <time>2013-05-10T12:46:36Z</time>
      </trkpt>
      <trkpt lat="43.58761" lon="5.65741">
        <ele>409.5</ele>
        <time>2013-05-10T12:46:58Z</time>
      </trkpt>
      <trkpt lat="43.58733" lon="5.65792">
        <ele>407.59997558594</ele>
        <time>2013-05-10T12:47:22Z</time>
      </trkpt>
      <trkpt lat="43.58664" lon="5.6582">
        <ele>428.90002441406</ele>
        <time>2013-05-10T12:47:45Z</time>
      </trkpt>
      <trkpt lat="43.58632" lon="5.65767">
        <ele>439.40002441406</ele>
        <time>2013-05-10T12:48:20Z</time>
      </trkpt>
      <trkpt lat="43.58641" lon="5.65714">
        <ele>454.79998779297</ele>
        <time>2013-05-10T12:48:46Z</time>
      </trkpt>
      <trkpt lat="43.5866" lon="5.65674">
        <ele>452.70001220703</ele>
        <time>2013-05-10T12:49:09Z</time>
      </trkpt>
      <trkpt lat="43.58662" lon="5.65618">
        <ele>452.59997558594</ele>
        <time>2013-05-10T12:49:39Z</time>
      </trkpt>
      <trkpt lat="43.58646" lon="5.65563">
        <ele>459.29998779297</ele>
        <time>2013-05-10T12:50:09Z</time>
      </trkpt>
      <trkpt lat="43.58626" lon="5.65502">
        <ele>447.90002441406</ele>
        <time>2013-05-10T12:50:39Z</time>
      </trkpt>
      <trkpt lat="43.5862" lon="5.65448">
        <ele>453.29998779297</ele>
        <time>2013-05-10T12:51:08Z</time>
      </trkpt>
      <trkpt lat="43.58613" lon="5.65404">
        <ele>435.29998779297</ele>
        <time>2013-05-10T12:51:31Z</time>
      </trkpt>
      <trkpt lat="43.58592" lon="5.65359">
        <ele>440.20001220703</ele>
        <time>2013-05-10T12:51:55Z</time>
      </trkpt>
      <trkpt lat="43.58574" lon="5.65332">
        <ele>459.40002441406</ele>
        <time>2013-05-10T12:52:23Z</time>
      </trkpt>
      <trkpt lat="43.58547" lon="5.65209">
        <ele>481.59997558594</ele>
        <time>2013-05-10T12:52:48Z</time>
      </trkpt>
      <trkpt lat="43.58513" lon="5.65144">
        <ele>440.59997558594</ele>
        <time>2013-05-10T12:53:13Z</time>
      </trkpt>
      <trkpt lat="43.58506" lon="5.64944">
        <ele>449.29998779297</ele>
        <time>2013-05-10T12:53:39Z</time>
      </trkpt>
      <trkpt lat="43.58472" lon="5.64948">
        <ele>467.20001220703</ele>
        <time>2013-05-10T12:54:05Z</time>
      </trkpt>
      <trkpt lat="43.58431" lon="5.64954">
        <ele>478.29998779297</ele>
        <time>2013-05-10T12:54:34Z</time>
      </trkpt>
      <trkpt lat="43.58396" lon="5.64959">
        <ele>496.90002441406</ele>
        <time>2013-05-10T12:55:04Z</time>
      </trkpt>
      <trkpt lat="43.58347" lon="5.64988">
        <ele>505.40002441406</ele>
        <time>2013-05-10T12:55:33Z</time>
      </trkpt>
      <trkpt lat="43.58322" lon="5.65026">
        <ele>500.09997558594</ele>
        <time>2013-05-10T12:55:58Z</time>
      </trkpt>
      <trkpt lat="43.58319" lon="5.65085">
        <ele>507.20001220703</ele>
        <time>2013-05-10T12:56:30Z</time>
      </trkpt>
      <trkpt lat="43.58287" lon="5.65111">
        <ele>509</ele>
        <time>2013-05-10T12:56:59Z</time>
      </trkpt>
      <trkpt lat="43.58253" lon="5.65119">
        <ele>524.09997558594</ele>
        <time>2013-05-10T12:57:28Z</time>
      </trkpt>
      <trkpt lat="43.58215" lon="5.65142">
        <ele>522.59997558594</ele>
        <time>2013-05-10T12:57:57Z</time>
      </trkpt>
      <trkpt lat="43.58177" lon="5.65171">
        <ele>531.69995117188</ele>
        <time>2013-05-10T12:58:31Z</time>
      </trkpt>
      <trkpt lat="43.58149" lon="5.65214">
        <ele>540.30004882812</ele>
        <time>2013-05-10T12:59:02Z</time>
      </trkpt>
      <trkpt lat="43.58124" lon="5.6525">
        <ele>547.30004882812</ele>
        <time>2013-05-10T12:59:30Z</time>
      </trkpt>
      <trkpt lat="43.58109" lon="5.6529">
        <ele>558.19995117188</ele>
        <time>2013-05-10T12:59:57Z</time>
      </trkpt>
      <trkpt lat="43.58078" lon="5.65315">
        <ele>557.40002441406</ele>
        <time>2013-05-10T13:00:31Z</time>
      </trkpt>
      <trkpt lat="43.58043" lon="5.65329">
        <ele>573.30004882812</ele>
        <time>2013-05-10T13:00:58Z</time>
      </trkpt>
      <trkpt lat="43.58034" lon="5.65374">
        <ele>555.19995117188</ele>
        <time>2013-05-10T13:01:25Z</time>
      </trkpt>
      <trkpt lat="43.58017" lon="5.65426">
        <ele>571.30004882812</ele>
        <time>2013-05-10T13:01:54Z</time>
      </trkpt>
      <trkpt lat="43.58007" lon="5.65422">
        <ele>570.19995117188</ele>
        <time>2013-05-10T13:02:25Z</time>
      </trkpt>
      <trkpt lat="43.57964" lon="5.65407">
        <ele>580.40002441406</ele>
        <time>2013-05-10T13:02:56Z</time>
      </trkpt>
      <trkpt lat="43.57953" lon="5.65423">
        <ele>591.90002441406</ele>
        <time>2013-05-10T13:03:31Z</time>
      </trkpt>
      <trkpt lat="43.57963" lon="5.65409">
        <ele>601.90002441406</ele>
        <time>2013-05-10T13:04:06Z</time>
      </trkpt>
      <trkpt lat="43.57953" lon="5.65413">
        <ele>596.30004882812</ele>
        <time>2013-05-10T13:04:40Z</time>
      </trkpt>
      <trkpt lat="43.57942" lon="5.654">
        <ele>567.19995117188</ele>
        <time>2013-05-10T13:06:57Z</time>
      </trkpt>
      <trkpt lat="43.57948" lon="5.65411">
        <ele>585.40002441406</ele>
        <time>2013-05-10T13:07:31Z</time>
      </trkpt>
      <trkpt lat="43.57947" lon="5.65424">
        <ele>585.59997558594</ele>
        <time>2013-05-10T13:10:53Z</time>
      </trkpt>
      <trkpt lat="43.57958" lon="5.65408">
        <ele>591.09997558594</ele>
        <time>2013-05-10T13:11:20Z</time>
      </trkpt>
      <trkpt lat="43.57941" lon="5.65427">
        <ele>586.59997558594</ele>
        <time>2013-05-10T13:11:45Z</time>
      </trkpt>
      <trkpt lat="43.57935" lon="5.65446">
        <ele>593.69995117188</ele>
        <time>2013-05-10T13:12:10Z</time>
      </trkpt>
      <trkpt lat="43.57925" lon="5.65462">
        <ele>592.5</ele>
        <time>2013-05-10T13:12:39Z</time>
      </trkpt>
      <trkpt lat="43.57919" lon="5.65479">
        <ele>601.5</ele>
        <time>2013-05-10T13:13:27Z</time>
      </trkpt>
      <trkpt lat="43.57895" lon="5.65499">
        <ele>595.5</ele>
        <time>2013-05-10T13:14:02Z</time>
      </trkpt>
      <trkpt lat="43.57871" lon="5.6552">
        <ele>605.69995117188</ele>
        <time>2013-05-10T13:14:29Z</time>
      </trkpt>
      <trkpt lat="43.57857" lon="5.65545">
        <ele>618.30004882812</ele>
        <time>2013-05-10T13:15:03Z</time>
      </trkpt>
      <trkpt lat="43.57842" lon="5.65551">
        <ele>619.30004882812</ele>
        <time>2013-05-10T13:15:26Z</time>
      </trkpt>
      <trkpt lat="43.57827" lon="5.65561">
        <ele>620.5</ele>
        <time>2013-05-10T13:16:00Z</time>
      </trkpt>
      <trkpt lat="43.578" lon="5.65582">
        <ele>627</ele>
        <time>2013-05-10T13:17:38Z</time>
      </trkpt>
      <trkpt lat="43.57774" lon="5.65563">
        <ele>638.59997558594</ele>
        <time>2013-05-10T13:18:48Z</time>
      </trkpt>
      <trkpt lat="43.57775" lon="5.6555">
        <ele>625.40002441406</ele>
        <time>2013-05-10T13:19:45Z</time>
      </trkpt>
      <trkpt lat="43.57763" lon="5.65566">
        <ele>636.80004882812</ele>
        <time>2013-05-10T13:20:34Z</time>
      </trkpt>
      <trkpt lat="43.57755" lon="5.65574">
        <ele>634.69995117188</ele>
        <time>2013-05-10T13:20:58Z</time>
      </trkpt>
      <trkpt lat="43.57738" lon="5.65568">
        <ele>631.80004882812</ele>
        <time>2013-05-10T13:21:21Z</time>
      </trkpt>
      <trkpt lat="43.57733" lon="5.65582">
        <ele>644.90002441406</ele>
        <time>2013-05-10T13:21:44Z</time>
      </trkpt>
      <trkpt lat="43.57714" lon="5.65577">
        <ele>638.09997558594</ele>
        <time>2013-05-10T13:22:07Z</time>
      </trkpt>
      <trkpt lat="43.57696" lon="5.65578">
        <ele>628.69995117188</ele>
        <time>2013-05-10T13:22:30Z</time>
      </trkpt>
      <trkpt lat="43.57668" lon="5.65577">
        <ele>618.09997558594</ele>
        <time>2013-05-10T13:22:54Z</time>
      </trkpt>
      <trkpt lat="43.57646" lon="5.65583">
        <ele>611.90002441406</ele>
        <time>2013-05-10T13:23:18Z</time>
      </trkpt>
      <trkpt lat="43.57622" lon="5.65584">
        <ele>618.59997558594</ele>
        <time>2013-05-10T13:23:41Z</time>
      </trkpt>
      <trkpt lat="43.57598" lon="5.65587">
        <ele>614.5</ele>
        <time>2013-05-10T13:24:04Z</time>
      </trkpt>
      <trkpt lat="43.57576" lon="5.65588">
        <ele>606.30004882812</ele>
        <time>2013-05-10T13:24:26Z</time>
      </trkpt>
      <trkpt lat="43.57566" lon="5.65594">
        <ele>595.30004882812</ele>
        <time>2013-05-10T13:24:58Z</time>
      </trkpt>
      <trkpt lat="43.57548" lon="5.65595">
        <ele>609.80004882812</ele>
        <time>2013-05-10T13:26:49Z</time>
      </trkpt>
      <trkpt lat="43.57526" lon="5.65599">
        <ele>600</ele>
        <time>2013-05-10T13:27:11Z</time>
      </trkpt>
      <trkpt lat="43.57517" lon="5.65597">
        <ele>598.90002441406</ele>
        <time>2013-05-10T13:28:04Z</time>
      </trkpt>
      <trkpt lat="43.57506" lon="5.65591">
        <ele>594.40002441406</ele>
        <time>2013-05-10T13:28:27Z</time>
      </trkpt>
      <trkpt lat="43.57494" lon="5.65588">
        <ele>602</ele>
        <time>2013-05-10T13:28:54Z</time>
      </trkpt>
      <trkpt lat="43.57478" lon="5.65584">
        <ele>597.5</ele>
        <time>2013-05-10T13:29:17Z</time>
      </trkpt>
      <trkpt lat="43.57462" lon="5.65587">
        <ele>597.59997558594</ele>
        <time>2013-05-10T13:29:40Z</time>
      </trkpt>
      <trkpt lat="43.57447" lon="5.65592">
        <ele>592.69995117188</ele>
        <time>2013-05-10T13:30:03Z</time>
      </trkpt>
      <trkpt lat="43.57429" lon="5.65591">
        <ele>579.09997558594</ele>
        <time>2013-05-10T13:30:48Z</time>
      </trkpt>
      <trkpt lat="43.574" lon="5.65582">
        <ele>576.40002441406</ele>
        <time>2013-05-10T13:31:14Z</time>
      </trkpt>
      <trkpt lat="43.5741" lon="5.65562">
        <ele>549.19995117188</ele>
        <time>2013-05-10T13:32:08Z</time>
      </trkpt>
      <trkpt lat="43.57403" lon="5.65581">
        <ele>558.30004882812</ele>
        <time>2013-05-10T13:32:34Z</time>
      </trkpt>
      <trkpt lat="43.57393" lon="5.65593">
        <ele>574</ele>
        <time>2013-05-10T13:33:25Z</time>
      </trkpt>
      <trkpt lat="43.57397" lon="5.65604">
        <ele>574</ele>
        <time>2013-05-10T13:34:20Z</time>
      </trkpt>
      <trkpt lat="43.57395" lon="5.65656">
        <ele>574.5</ele>
        <time>2013-05-10T13:34:47Z</time>
      </trkpt>
      <trkpt lat="43.57393" lon="5.65702">
        <ele>586.30004882812</ele>
        <time>2013-05-10T13:35:10Z</time>
      </trkpt>
      <trkpt lat="43.5738" lon="5.65726">
        <ele>580.40002441406</ele>
        <time>2013-05-10T13:35:34Z</time>
      </trkpt>
      <trkpt lat="43.57365" lon="5.65754">
        <ele>576.80004882812</ele>
        <time>2013-05-10T13:35:59Z</time>
      </trkpt>
      <trkpt lat="43.57361" lon="5.6579">
        <ele>572.5</ele>
        <time>2013-05-10T13:36:22Z</time>
      </trkpt>
      <trkpt lat="43.57339" lon="5.65778">
        <ele>583.59997558594</ele>
        <time>2013-05-10T13:36:49Z</time>
      </trkpt>
      <trkpt lat="43.57336" lon="5.65822">
        <ele>588.09997558594</ele>
        <time>2013-05-10T13:37:15Z</time>
      </trkpt>
      <trkpt lat="43.57319" lon="5.65847">
        <ele>584.30004882812</ele>
        <time>2013-05-10T13:37:41Z</time>
      </trkpt>
      <trkpt lat="43.57292" lon="5.65908">
        <ele>580.19995117188</ele>
        <time>2013-05-10T13:38:06Z</time>
      </trkpt>
      <trkpt lat="43.57247" lon="5.65956">
        <ele>591.5</ele>
        <time>2013-05-10T13:38:31Z</time>
      </trkpt>
      <trkpt lat="43.57226" lon="5.65982">
        <ele>576.80004882812</ele>
        <time>2013-05-10T13:39:05Z</time>
      </trkpt>
      <trkpt lat="43.57213" lon="5.66038">
        <ele>566.40002441406</ele>
        <time>2013-05-10T13:39:40Z</time>
      </trkpt>
      <trkpt lat="43.57211" lon="5.66103">
        <ele>572.5</ele>
        <time>2013-05-10T13:40:12Z</time>
      </trkpt>
      <trkpt lat="43.57204" lon="5.66166">
        <ele>575.59997558594</ele>
        <time>2013-05-10T13:40:47Z</time>
      </trkpt>
      <trkpt lat="43.57196" lon="5.66221">
        <ele>564.09997558594</ele>
        <time>2013-05-10T13:41:20Z</time>
      </trkpt>
      <trkpt lat="43.57176" lon="5.66225">
        <ele>571</ele>
        <time>2013-05-10T13:41:44Z</time>
      </trkpt>
      <trkpt lat="43.57181" lon="5.66177">
        <ele>580.90002441406</ele>
        <time>2013-05-10T13:42:08Z</time>
      </trkpt>
      <trkpt lat="43.57168" lon="5.66123">
        <ele>584.69995117188</ele>
        <time>2013-05-10T13:42:34Z</time>
      </trkpt>
      <trkpt lat="43.57163" lon="5.66079">
        <ele>581.40002441406</ele>
        <time>2013-05-10T13:42:58Z</time>
      </trkpt>
      <trkpt lat="43.57124" lon="5.66041">
        <ele>584.09997558594</ele>
        <time>2013-05-10T13:43:31Z</time>
      </trkpt>
      <trkpt lat="43.5709" lon="5.66038">
        <ele>582.80004882812</ele>
        <time>2013-05-10T13:43:57Z</time>
      </trkpt>
      <trkpt lat="43.57078" lon="5.66059">
        <ele>573.5</ele>
        <time>2013-05-10T13:44:21Z</time>
      </trkpt>
      <trkpt lat="43.57087" lon="5.66063">
        <ele>577.80004882812</ele>
        <time>2013-05-10T13:45:12Z</time>
      </trkpt>
      <trkpt lat="43.57071" lon="5.66049">
        <ele>565.30004882812</ele>
        <time>2013-05-10T13:45:46Z</time>
      </trkpt>
      <trkpt lat="43.57051" lon="5.66054">
        <ele>583.69995117188</ele>
        <time>2013-05-10T13:46:09Z</time>
      </trkpt>
      <trkpt lat="43.57039" lon="5.66091">
        <ele>574.5</ele>
        <time>2013-05-10T13:46:33Z</time>
      </trkpt>
      <trkpt lat="43.57021" lon="5.66128">
        <ele>569</ele>
        <time>2013-05-10T13:47:05Z</time>
      </trkpt>
      <trkpt lat="43.56985" lon="5.66188">
        <ele>572.80004882812</ele>
        <time>2013-05-10T13:47:28Z</time>
      </trkpt>
      <trkpt lat="43.56935" lon="5.66297">
        <ele>576.59997558594</ele>
        <time>2013-05-10T13:47:51Z</time>
      </trkpt>
      <trkpt lat="43.56836" lon="5.66394">
        <ele>586.19995117188</ele>
        <time>2013-05-10T13:48:16Z</time>
      </trkpt>
      <trkpt lat="43.5682" lon="5.66428">
        <ele>578.5</ele>
        <time>2013-05-10T13:48:38Z</time>
      </trkpt>
      <trkpt lat="43.56794" lon="5.66478">
        <ele>586.30004882812</ele>
        <time>2013-05-10T13:49:08Z</time>
      </trkpt>
      <trkpt lat="43.56772" lon="5.66507">
        <ele>602</ele>
        <time>2013-05-10T13:49:30Z</time>
      </trkpt>
      <trkpt lat="43.56735" lon="5.6653">
        <ele>606.40002441406</ele>
        <time>2013-05-10T13:49:52Z</time>
      </trkpt>
      <trkpt lat="43.56697" lon="5.66551">
        <ele>619</ele>
        <time>2013-05-10T13:50:16Z</time>
      </trkpt>
      <trkpt lat="43.56662" lon="5.66566">
        <ele>606.90002441406</ele>
        <time>2013-05-10T13:50:50Z</time>
      </trkpt>
      <trkpt lat="43.56636" lon="5.66614">
        <ele>600</ele>
        <time>2013-05-10T13:51:24Z</time>
      </trkpt>
      <trkpt lat="43.56583" lon="5.6664">
        <ele>617</ele>
        <time>2013-05-10T13:51:56Z</time>
      </trkpt>
      <trkpt lat="43.56556" lon="5.66667">
        <ele>605.90002441406</ele>
        <time>2013-05-10T13:52:18Z</time>
      </trkpt>
      <trkpt lat="43.56541" lon="5.66714">
        <ele>611.09997558594</ele>
        <time>2013-05-10T13:52:40Z</time>
      </trkpt>
      <trkpt lat="43.56521" lon="5.66748">
        <ele>625.69995117188</ele>
        <time>2013-05-10T13:53:05Z</time>
      </trkpt>
      <trkpt lat="43.56502" lon="5.66777">
        <ele>626.90002441406</ele>
        <time>2013-05-10T13:53:27Z</time>
      </trkpt>
      <trkpt lat="43.56494" lon="5.66819">
        <ele>628.59997558594</ele>
        <time>2013-05-10T13:53:56Z</time>
      </trkpt>
      <trkpt lat="43.56481" lon="5.66833">
        <ele>632.80004882812</ele>
        <time>2013-05-10T13:55:34Z</time>
      </trkpt>
      <trkpt lat="43.5647" lon="5.66863">
        <ele>641.90002441406</ele>
        <time>2013-05-10T13:56:23Z</time>
      </trkpt>
      <trkpt lat="43.56466" lon="5.66899">
        <ele>642.09997558594</ele>
        <time>2013-05-10T13:56:49Z</time>
      </trkpt>
      <trkpt lat="43.56464" lon="5.66927">
        <ele>652.30004882812</ele>
        <time>2013-05-10T13:57:12Z</time>
      </trkpt>
      <trkpt lat="43.56447" lon="5.66952">
        <ele>665</ele>
        <time>2013-05-10T13:57:39Z</time>
      </trkpt>
      <trkpt lat="43.5644" lon="5.6699">
        <ele>660.09997558594</ele>
        <time>2013-05-10T13:58:01Z</time>
      </trkpt>
      <trkpt lat="43.56428" lon="5.67024">
        <ele>662.19995117188</ele>
        <time>2013-05-10T13:58:23Z</time>
      </trkpt>
      <trkpt lat="43.56419" lon="5.67031">
        <ele>673.5</ele>
        <time>2013-05-10T13:58:46Z</time>
      </trkpt>
      <trkpt lat="43.56421" lon="5.67018">
        <ele>663.19995117188</ele>
        <time>2013-05-10T13:59:54Z</time>
      </trkpt>
      <trkpt lat="43.56417" lon="5.67034">
        <ele>673.09997558594</ele>
        <time>2013-05-10T14:00:39Z</time>
      </trkpt>
      <trkpt lat="43.56406" lon="5.67025">
        <ele>673</ele>
        <time>2013-05-10T14:01:25Z</time>
      </trkpt>
      <trkpt lat="43.56387" lon="5.67043">
        <ele>671.19995117188</ele>
        <time>2013-05-10T14:03:42Z</time>
      </trkpt>
      <trkpt lat="43.56357" lon="5.67053">
        <ele>671.30004882812</ele>
        <time>2013-05-10T14:04:05Z</time>
      </trkpt>
      <trkpt lat="43.56318" lon="5.67029">
        <ele>648</ele>
        <time>2013-05-10T14:04:39Z</time>
      </trkpt>
      <trkpt lat="43.56277" lon="5.67">
        <ele>676.5</ele>
        <time>2013-05-10T14:05:13Z</time>
      </trkpt>
      <trkpt lat="43.56248" lon="5.66953">
        <ele>682.30004882812</ele>
        <time>2013-05-10T14:05:46Z</time>
      </trkpt>
      <trkpt lat="43.56222" lon="5.66931">
        <ele>662.30004882812</ele>
        <time>2013-05-10T14:06:14Z</time>
      </trkpt>
      <trkpt lat="43.56189" lon="5.66983">
        <ele>659</ele>
        <time>2013-05-10T14:06:47Z</time>
      </trkpt>
      <trkpt lat="43.56164" lon="5.67015">
        <ele>655.69995117188</ele>
        <time>2013-05-10T14:07:14Z</time>
      </trkpt>
      <trkpt lat="43.56147" lon="5.67052">
        <ele>649.09997558594</ele>
        <time>2013-05-10T14:07:38Z</time>
      </trkpt>
      <trkpt lat="43.56123" lon="5.67085">
        <ele>655.19995117188</ele>
        <time>2013-05-10T14:08:01Z</time>
      </trkpt>
      <trkpt lat="43.56106" lon="5.6712">
        <ele>647.30004882812</ele>
        <time>2013-05-10T14:08:24Z</time>
      </trkpt>
      <trkpt lat="43.56102" lon="5.67163">
        <ele>652.40002441406</ele>
        <time>2013-05-10T14:08:49Z</time>
      </trkpt>
      <trkpt lat="43.56093" lon="5.67187">
        <ele>643</ele>
        <time>2013-05-10T14:09:14Z</time>
      </trkpt>
      <trkpt lat="43.56067" lon="5.67219">
        <ele>664.30004882812</ele>
        <time>2013-05-10T14:09:40Z</time>
      </trkpt>
      <trkpt lat="43.56049" lon="5.67231">
        <ele>655.40002441406</ele>
        <time>2013-05-10T14:10:03Z</time>
      </trkpt>
      <trkpt lat="43.56019" lon="5.67242">
        <ele>649.69995117188</ele>
        <time>2013-05-10T14:10:33Z</time>
      </trkpt>
      <trkpt lat="43.56006" lon="5.67268">
        <ele>648.5</ele>
        <time>2013-05-10T14:10:56Z</time>
      </trkpt>
      <trkpt lat="43.55976" lon="5.67293">
        <ele>641.19995117188</ele>
        <time>2013-05-10T14:11:19Z</time>
      </trkpt>
      <trkpt lat="43.55941" lon="5.67332">
        <ele>639.19995117188</ele>
        <time>2013-05-10T14:11:53Z</time>
      </trkpt>
      <trkpt lat="43.559" lon="5.67354">
        <ele>639.19995117188</ele>
        <time>2013-05-10T14:12:18Z</time>
      </trkpt>
      <trkpt lat="43.55884" lon="5.67404">
        <ele>654.80004882812</ele>
        <time>2013-05-10T14:12:40Z</time>
      </trkpt>
      <trkpt lat="43.55863" lon="5.67439">
        <ele>655.30004882812</ele>
        <time>2013-05-10T14:13:03Z</time>
      </trkpt>
      <trkpt lat="43.55831" lon="5.67457">
        <ele>656.19995117188</ele>
        <time>2013-05-10T14:13:26Z</time>
      </trkpt>
      <trkpt lat="43.55789" lon="5.67474">
        <ele>658.90002441406</ele>
        <time>2013-05-10T14:13:50Z</time>
      </trkpt>
      <trkpt lat="43.55759" lon="5.67495">
        <ele>651.90002441406</ele>
        <time>2013-05-10T14:14:13Z</time>
      </trkpt>
      <trkpt lat="43.55731" lon="5.67515">
        <ele>637.59997558594</ele>
        <time>2013-05-10T14:14:36Z</time>
      </trkpt>
      <trkpt lat="43.55696" lon="5.67543">
        <ele>650.19995117188</ele>
        <time>2013-05-10T14:14:59Z</time>
      </trkpt>
      <trkpt lat="43.55666" lon="5.67557">
        <ele>652.5</ele>
        <time>2013-05-10T14:15:21Z</time>
      </trkpt>
      <trkpt lat="43.55629" lon="5.67565">
        <ele>653.30004882812</ele>
        <time>2013-05-10T14:15:43Z</time>
      </trkpt>
      <trkpt lat="43.55596" lon="5.67582">
        <ele>643.59997558594</ele>
        <time>2013-05-10T14:16:08Z</time>
      </trkpt>
      <trkpt lat="43.5556" lon="5.67607">
        <ele>657.90002441406</ele>
        <time>2013-05-10T14:16:31Z</time>
      </trkpt>
      <trkpt lat="43.55532" lon="5.6763">
        <ele>654.5</ele>
        <time>2013-05-10T14:16:54Z</time>
      </trkpt>
      <trkpt lat="43.55508" lon="5.67641">
        <ele>646</ele>
        <time>2013-05-10T14:17:15Z</time>
      </trkpt>
      <trkpt lat="43.55479" lon="5.67661">
        <ele>645.69995117188</ele>
        <time>2013-05-10T14:17:37Z</time>
      </trkpt>
      <trkpt lat="43.55449" lon="5.67646">
        <ele>666.40002441406</ele>
        <time>2013-05-10T14:18:01Z</time>
      </trkpt>
      <trkpt lat="43.55471" lon="5.67613">
        <ele>640.09997558594</ele>
        <time>2013-05-10T14:18:34Z</time>
      </trkpt>
      <trkpt lat="43.55476" lon="5.67579">
        <ele>650.59997558594</ele>
        <time>2013-05-10T14:19:00Z</time>
      </trkpt>
      <trkpt lat="43.55461" lon="5.67508">
        <ele>663.09997558594</ele>
        <time>2013-05-10T14:19:34Z</time>
      </trkpt>
      <trkpt lat="43.55446" lon="5.6746">
        <ele>661.09997558594</ele>
        <time>2013-05-10T14:20:09Z</time>
      </trkpt>
      <trkpt lat="43.55443" lon="5.67409">
        <ele>656.19995117188</ele>
        <time>2013-05-10T14:20:43Z</time>
      </trkpt>
      <trkpt lat="43.55448" lon="5.6734">
        <ele>677.09997558594</ele>
        <time>2013-05-10T14:21:17Z</time>
      </trkpt>
      <trkpt lat="43.55441" lon="5.67288">
        <ele>675</ele>
        <time>2013-05-10T14:21:44Z</time>
      </trkpt>
      <trkpt lat="43.55424" lon="5.67231">
        <ele>688.90002441406</ele>
        <time>2013-05-10T14:22:14Z</time>
      </trkpt>
      <trkpt lat="43.5541" lon="5.67191">
        <ele>692.80004882812</ele>
        <time>2013-05-10T14:22:40Z</time>
      </trkpt>
      <trkpt lat="43.55392" lon="5.67157">
        <ele>684.80004882812</ele>
        <time>2013-05-10T14:23:12Z</time>
      </trkpt>
      <trkpt lat="43.55346" lon="5.67133">
        <ele>691.19995117188</ele>
        <time>2013-05-10T14:23:45Z</time>
      </trkpt>
      <trkpt lat="43.55305" lon="5.67102">
        <ele>695.59997558594</ele>
        <time>2013-05-10T14:24:19Z</time>
      </trkpt>
      <trkpt lat="43.5527" lon="5.67087">
        <ele>707.59997558594</ele>
        <time>2013-05-10T14:24:53Z</time>
      </trkpt>
      <trkpt lat="43.55238" lon="5.67052">
        <ele>719.69995117188</ele>
        <time>2013-05-10T14:25:27Z</time>
      </trkpt>
      <trkpt lat="43.55219" lon="5.66997">
        <ele>702.80004882812</ele>
        <time>2013-05-10T14:26:01Z</time>
      </trkpt>
      <trkpt lat="43.55189" lon="5.66943">
        <ele>709.5</ele>
        <time>2013-05-10T14:26:36Z</time>
      </trkpt>
      <trkpt lat="43.55172" lon="5.66878">
        <ele>726.30004882812</ele>
        <time>2013-05-10T14:27:10Z</time>
      </trkpt>
      <trkpt lat="43.55145" lon="5.66844">
        <ele>721.59997558594</ele>
        <time>2013-05-10T14:27:44Z</time>
      </trkpt>
      <trkpt lat="43.55146" lon="5.66816">
        <ele>722.30004882812</ele>
        <time>2013-05-10T14:28:07Z</time>
      </trkpt>
      <trkpt lat="43.55142" lon="5.66805">
        <ele>727</ele>
        <time>2013-05-10T14:28:29Z</time>
      </trkpt>
      <trkpt lat="43.55135" lon="5.66777">
        <ele>730.5</ele>
        <time>2013-05-10T14:28:53Z</time>
      </trkpt>
      <trkpt lat="43.55119" lon="5.66752">
        <ele>730.59997558594</ele>
        <time>2013-05-10T14:29:22Z</time>
      </trkpt>
      <trkpt lat="43.55098" lon="5.66735">
        <ele>727.40002441406</ele>
        <time>2013-05-10T14:32:53Z</time>
      </trkpt>
      <trkpt lat="43.55078" lon="5.66727">
        <ele>728.5</ele>
        <time>2013-05-10T14:33:16Z</time>
      </trkpt>
      <trkpt lat="43.55061" lon="5.66712">
        <ele>726.30004882812</ele>
        <time>2013-05-10T14:33:39Z</time>
      </trkpt>
      <trkpt lat="43.55051" lon="5.66706">
        <ele>732.09997558594</ele>
        <time>2013-05-10T14:34:25Z</time>
      </trkpt>
      <trkpt lat="43.55044" lon="5.6669">
        <ele>728.80004882812</ele>
        <time>2013-05-10T14:36:22Z</time>
      </trkpt>
      <trkpt lat="43.55035" lon="5.66684">
        <ele>729.69995117188</ele>
        <time>2013-05-10T14:36:45Z</time>
      </trkpt>
      <trkpt lat="43.55027" lon="5.66669">
        <ele>729.30004882812</ele>
        <time>2013-05-10T14:37:08Z</time>
      </trkpt>
      <trkpt lat="43.55019" lon="5.66654">
        <ele>726.80004882812</ele>
        <time>2013-05-10T14:37:55Z</time>
      </trkpt>
      <trkpt lat="43.5501" lon="5.66637">
        <ele>724.69995117188</ele>
        <time>2013-05-10T14:38:18Z</time>
      </trkpt>
      <trkpt lat="43.55001" lon="5.66632">
        <ele>711.5</ele>
        <time>2013-05-10T14:39:27Z</time>
      </trkpt>
      <trkpt lat="43.54985" lon="5.66602">
        <ele>717.09997558594</ele>
        <time>2013-05-10T14:39:50Z</time>
      </trkpt>
      <trkpt lat="43.54967" lon="5.66582">
        <ele>716.40002441406</ele>
        <time>2013-05-10T14:40:11Z</time>
      </trkpt>
      <trkpt lat="43.54963" lon="5.66564">
        <ele>718</ele>
        <time>2013-05-10T14:40:33Z</time>
      </trkpt>
      <trkpt lat="43.5495" lon="5.66552">
        <ele>717.80004882812</ele>
        <time>2013-05-10T14:40:55Z</time>
      </trkpt>
      <trkpt lat="43.54933" lon="5.66539">
        <ele>709.80004882812</ele>
        <time>2013-05-10T14:41:19Z</time>
      </trkpt>
      <trkpt lat="43.54905" lon="5.66519">
        <ele>712.5</ele>
        <time>2013-05-10T14:41:43Z</time>
      </trkpt>
      <trkpt lat="43.5488" lon="5.66501">
        <ele>707.09997558594</ele>
        <time>2013-05-10T14:42:06Z</time>
      </trkpt>
      <trkpt lat="43.54856" lon="5.66497">
        <ele>704.40002441406</ele>
        <time>2013-05-10T14:42:30Z</time>
      </trkpt>
      <trkpt lat="43.54833" lon="5.66487">
        <ele>705</ele>
        <time>2013-05-10T14:42:55Z</time>
      </trkpt>
      <trkpt lat="43.54843" lon="5.66458">
        <ele>700.80004882812</ele>
        <time>2013-05-10T14:43:18Z</time>
      </trkpt>
      <trkpt lat="43.54862" lon="5.66445">
        <ele>698.80004882812</ele>
        <time>2013-05-10T14:43:41Z</time>
      </trkpt>
      <trkpt lat="43.54901" lon="5.66441">
        <ele>702</ele>
        <time>2013-05-10T14:44:15Z</time>
      </trkpt>
      <trkpt lat="43.54896" lon="5.66414">
        <ele>706</ele>
        <time>2013-05-10T14:44:43Z</time>
      </trkpt>
      <trkpt lat="43.5487" lon="5.66414">
        <ele>697.69995117188</ele>
        <time>2013-05-10T14:45:07Z</time>
      </trkpt>
      <trkpt lat="43.54837" lon="5.66406">
        <ele>699.90002441406</ele>
        <time>2013-05-10T14:45:34Z</time>
      </trkpt>
      <trkpt lat="43.54826" lon="5.664">
        <ele>698.5</ele>
        <time>2013-05-10T14:46:04Z</time>
      </trkpt>
      <trkpt lat="43.54809" lon="5.66378">
        <ele>696.80004882812</ele>
        <time>2013-05-10T14:46:31Z</time>
      </trkpt>
      <trkpt lat="43.54791" lon="5.66347">
        <ele>683.30004882812</ele>
        <time>2013-05-10T14:47:01Z</time>
      </trkpt>
      <trkpt lat="43.54783" lon="5.66332">
        <ele>683.69995117188</ele>
        <time>2013-05-10T14:47:53Z</time>
      </trkpt>
      <trkpt lat="43.54775" lon="5.66313">
        <ele>677.69995117188</ele>
        <time>2013-05-10T14:49:00Z</time>
      </trkpt>
      <trkpt lat="43.54766" lon="5.66262">
        <ele>675.5</ele>
        <time>2013-05-10T14:49:35Z</time>
      </trkpt>
      <trkpt lat="43.54788" lon="5.66238">
        <ele>669.19995117188</ele>
        <time>2013-05-10T14:50:01Z</time>
      </trkpt>
      <trkpt lat="43.54792" lon="5.66183">
        <ele>670.80004882812</ele>
        <time>2013-05-10T14:50:35Z</time>
      </trkpt>
      <trkpt lat="43.54813" lon="5.6606">
        <ele>661.40002441406</ele>
        <time>2013-05-10T14:51:10Z</time>
      </trkpt>
      <trkpt lat="43.54883" lon="5.65798">
        <ele>675.59997558594</ele>
        <time>2013-05-10T14:51:45Z</time>
      </trkpt>
      <trkpt lat="43.54903" lon="5.6575">
        <ele>668.59997558594</ele>
        <time>2013-05-10T14:52:19Z</time>
      </trkpt>
      <trkpt lat="43.54929" lon="5.65722">
        <ele>678.5</ele>
        <time>2013-05-10T14:52:45Z</time>
      </trkpt>
      <trkpt lat="43.54933" lon="5.65677">
        <ele>677.40002441406</ele>
        <time>2013-05-10T14:53:09Z</time>
      </trkpt>
      <trkpt lat="43.54953" lon="5.6562">
        <ele>677</ele>
        <time>2013-05-10T14:53:44Z</time>
      </trkpt>
      <trkpt lat="43.5496" lon="5.65563">
        <ele>683.09997558594</ele>
        <time>2013-05-10T14:54:18Z</time>
      </trkpt>
      <trkpt lat="43.54942" lon="5.65501">
        <ele>686.40002441406</ele>
        <time>2013-05-10T14:54:52Z</time>
      </trkpt>
      <trkpt lat="43.54935" lon="5.65433">
        <ele>686.09997558594</ele>
        <time>2013-05-10T14:55:27Z</time>
      </trkpt>
      <trkpt lat="43.54919" lon="5.65386">
        <ele>682.59997558594</ele>
        <time>2013-05-10T14:55:57Z</time>
      </trkpt>
      <trkpt lat="43.54887" lon="5.6536">
        <ele>694.5</ele>
        <time>2013-05-10T14:56:21Z</time>
      </trkpt>
      <trkpt lat="43.54859" lon="5.65341">
        <ele>693</ele>
        <time>2013-05-10T14:56:44Z</time>
      </trkpt>
      <trkpt lat="43.54835" lon="5.65293">
        <ele>687.69995117188</ele>
        <time>2013-05-10T14:57:14Z</time>
      </trkpt>
      <trkpt lat="43.54815" lon="5.65246">
        <ele>678.59997558594</ele>
        <time>2013-05-10T14:57:44Z</time>
      </trkpt>
      <trkpt lat="43.5482" lon="5.65183">
        <ele>674.59997558594</ele>
        <time>2013-05-10T14:58:18Z</time>
      </trkpt>
      <trkpt lat="43.5481" lon="5.65146">
        <ele>677.80004882812</ele>
        <time>2013-05-10T14:58:42Z</time>
      </trkpt>
      <trkpt lat="43.54798" lon="5.65118">
        <ele>672.30004882812</ele>
        <time>2013-05-10T14:59:07Z</time>
      </trkpt>
      <trkpt lat="43.54791" lon="5.65084">
        <ele>673.40002441406</ele>
        <time>2013-05-10T14:59:29Z</time>
      </trkpt>
      <trkpt lat="43.54805" lon="5.65022">
        <ele>666.19995117188</ele>
        <time>2013-05-10T15:00:01Z</time>
      </trkpt>
      <trkpt lat="43.54803" lon="5.64974">
        <ele>666.90002441406</ele>
        <time>2013-05-10T15:00:23Z</time>
      </trkpt>
      <trkpt lat="43.54816" lon="5.64931">
        <ele>658.19995117188</ele>
        <time>2013-05-10T15:00:52Z</time>
      </trkpt>
      <trkpt lat="43.54819" lon="5.64875">
        <ele>653.69995117188</ele>
        <time>2013-05-10T15:01:22Z</time>
      </trkpt>
      <trkpt lat="43.54784" lon="5.6483">
        <ele>655.19995117188</ele>
        <time>2013-05-10T15:01:56Z</time>
      </trkpt>
      <trkpt lat="43.54744" lon="5.64801">
        <ele>650.30004882812</ele>
        <time>2013-05-10T15:02:24Z</time>
      </trkpt>
      <trkpt lat="43.54719" lon="5.64756">
        <ele>647.90002441406</ele>
        <time>2013-05-10T15:02:54Z</time>
      </trkpt>
      <trkpt lat="43.54735" lon="5.64713">
        <ele>645.80004882812</ele>
        <time>2013-05-10T15:03:29Z</time>
      </trkpt>
      <trkpt lat="43.54774" lon="5.64658">
        <ele>646.90002441406</ele>
        <time>2013-05-10T15:04:03Z</time>
      </trkpt>
      <trkpt lat="43.54783" lon="5.64607">
        <ele>642.90002441406</ele>
        <time>2013-05-10T15:04:32Z</time>
      </trkpt>
      <trkpt lat="43.54767" lon="5.64583">
        <ele>637.59997558594</ele>
        <time>2013-05-10T15:04:54Z</time>
      </trkpt>
      <trkpt lat="43.54741" lon="5.64517">
        <ele>645</ele>
        <time>2013-05-10T15:05:28Z</time>
      </trkpt>
      <trkpt lat="43.54739" lon="5.64456">
        <ele>647.90002441406</ele>
        <time>2013-05-10T15:06:02Z</time>
      </trkpt>
      <trkpt lat="43.54747" lon="5.64391">
        <ele>644.69995117188</ele>
        <time>2013-05-10T15:06:36Z</time>
      </trkpt>
      <trkpt lat="43.54798" lon="5.64343">
        <ele>664.69995117188</ele>
        <time>2013-05-10T15:07:10Z</time>
      </trkpt>
      <trkpt lat="43.54817" lon="5.64323">
        <ele>630.09997558594</ele>
        <time>2013-05-10T15:07:35Z</time>
      </trkpt>
      <trkpt lat="43.54795" lon="5.64271">
        <ele>625.30004882812</ele>
        <time>2013-05-10T15:08:09Z</time>
      </trkpt>
      <trkpt lat="43.54748" lon="5.64244">
        <ele>627.80004882812</ele>
        <time>2013-05-10T15:08:34Z</time>
      </trkpt>
      <trkpt lat="43.54749" lon="5.64193">
        <ele>639.69995117188</ele>
        <time>2013-05-10T15:09:01Z</time>
      </trkpt>
      <trkpt lat="43.54754" lon="5.64131">
        <ele>630.69995117188</ele>
        <time>2013-05-10T15:09:36Z</time>
      </trkpt>
      <trkpt lat="43.5478" lon="5.64058">
        <ele>636.69995117188</ele>
        <time>2013-05-10T15:10:11Z</time>
      </trkpt>
      <trkpt lat="43.54815" lon="5.64017">
        <ele>629</ele>
        <time>2013-05-10T15:10:45Z</time>
      </trkpt>
      <trkpt lat="43.54808" lon="5.63958">
        <ele>638.19995117188</ele>
        <time>2013-05-10T15:11:19Z</time>
      </trkpt>
      <trkpt lat="43.54849" lon="5.63898">
        <ele>635.19995117188</ele>
        <time>2013-05-10T15:11:48Z</time>
      </trkpt>
      <trkpt lat="43.54857" lon="5.63763">
        <ele>631.5</ele>
        <time>2013-05-10T15:12:23Z</time>
      </trkpt>
      <trkpt lat="43.5486" lon="5.63701">
        <ele>631.5</ele>
        <time>2013-05-10T15:12:55Z</time>
      </trkpt>
      <trkpt lat="43.54855" lon="5.63635">
        <ele>631.5</ele>
        <time>2013-05-10T15:13:30Z</time>
      </trkpt>
      <trkpt lat="43.54852" lon="5.63568">
        <ele>631.80004882812</ele>
        <time>2013-05-10T15:14:05Z</time>
      </trkpt>
      <trkpt lat="43.54849" lon="5.63506">
        <ele>625.5</ele>
        <time>2013-05-10T15:14:39Z</time>
      </trkpt>
      <trkpt lat="43.54869" lon="5.63462">
        <ele>613</ele>
        <time>2013-05-10T15:15:03Z</time>
      </trkpt>
      <trkpt lat="43.54873" lon="5.63395">
        <ele>620.69995117188</ele>
        <time>2013-05-10T15:15:37Z</time>
      </trkpt>
      <trkpt lat="43.54864" lon="5.63327">
        <ele>618.80004882812</ele>
        <time>2013-05-10T15:16:11Z</time>
      </trkpt>
      <trkpt lat="43.54859" lon="5.63257">
        <ele>611.90002441406</ele>
        <time>2013-05-10T15:16:44Z</time>
      </trkpt>
      <trkpt lat="43.54864" lon="5.63128">
        <ele>608.40002441406</ele>
        <time>2013-05-10T15:17:08Z</time>
      </trkpt>
      <trkpt lat="43.54849" lon="5.63079">
        <ele>604.30004882812</ele>
        <time>2013-05-10T15:17:32Z</time>
      </trkpt>
      <trkpt lat="43.54863" lon="5.63032">
        <ele>610.40002441406</ele>
        <time>2013-05-10T15:17:56Z</time>
      </trkpt>
      <trkpt lat="43.54878" lon="5.62984">
        <ele>599</ele>
        <time>2013-05-10T15:18:27Z</time>
      </trkpt>
      <trkpt lat="43.54884" lon="5.62938">
        <ele>597.90002441406</ele>
        <time>2013-05-10T15:18:53Z</time>
      </trkpt>
      <trkpt lat="43.54883" lon="5.62873">
        <ele>592.40002441406</ele>
        <time>2013-05-10T15:19:26Z</time>
      </trkpt>
      <trkpt lat="43.54871" lon="5.62818">
        <ele>593.69995117188</ele>
        <time>2013-05-10T15:19:52Z</time>
      </trkpt>
      <trkpt lat="43.54859" lon="5.62743">
        <ele>596.09997558594</ele>
        <time>2013-05-10T15:20:26Z</time>
      </trkpt>
      <trkpt lat="43.54848" lon="5.62681">
        <ele>592</ele>
        <time>2013-05-10T15:20:55Z</time>
      </trkpt>
      <trkpt lat="43.54845" lon="5.62624">
        <ele>584.69995117188</ele>
        <time>2013-05-10T15:21:28Z</time>
      </trkpt>
      <trkpt lat="43.54846" lon="5.62499">
        <ele>583.19995117188</ele>
        <time>2013-05-10T15:21:53Z</time>
      </trkpt>
      <trkpt lat="43.54867" lon="5.6253">
        <ele>581.30004882812</ele>
        <time>2013-05-10T15:22:27Z</time>
      </trkpt>
      <trkpt lat="43.54897" lon="5.62537">
        <ele>582.5</ele>
        <time>2013-05-10T15:23:01Z</time>
      </trkpt>
      <trkpt lat="43.54924" lon="5.62504">
        <ele>573.19995117188</ele>
        <time>2013-05-10T15:23:35Z</time>
      </trkpt>
      <trkpt lat="43.54954" lon="5.62468">
        <ele>576.40002441406</ele>
        <time>2013-05-10T15:24:09Z</time>
      </trkpt>
      <trkpt lat="43.54987" lon="5.62447">
        <ele>564.30004882812</ele>
        <time>2013-05-10T15:24:43Z</time>
      </trkpt>
      <trkpt lat="43.55031" lon="5.62441">
        <ele>570.30004882812</ele>
        <time>2013-05-10T15:25:17Z</time>
      </trkpt>
      <trkpt lat="43.55075" lon="5.62466">
        <ele>558.59997558594</ele>
        <time>2013-05-10T15:25:52Z</time>
      </trkpt>
      <trkpt lat="43.55124" lon="5.62445">
        <ele>545.90002441406</ele>
        <time>2013-05-10T15:26:26Z</time>
      </trkpt>
      <trkpt lat="43.55156" lon="5.62436">
        <ele>528.90002441406</ele>
        <time>2013-05-10T15:27:00Z</time>
      </trkpt>
      <trkpt lat="43.55195" lon="5.62398">
        <ele>519.29998779297</ele>
        <time>2013-05-10T15:27:34Z</time>
      </trkpt>
      <trkpt lat="43.55212" lon="5.62388">
        <ele>536.69995117188</ele>
        <time>2013-05-10T15:29:16Z</time>
      </trkpt>
      <trkpt lat="43.5522" lon="5.62347">
        <ele>532.59997558594</ele>
        <time>2013-05-10T15:29:39Z</time>
      </trkpt>
      <trkpt lat="43.55223" lon="5.62288">
        <ele>524.90002441406</ele>
        <time>2013-05-10T15:30:14Z</time>
      </trkpt>
      <trkpt lat="43.55242" lon="5.62231">
        <ele>513.20001220703</ele>
        <time>2013-05-10T15:30:48Z</time>
      </trkpt>
      <trkpt lat="43.55257" lon="5.62175">
        <ele>511.59997558594</ele>
        <time>2013-05-10T15:31:21Z</time>
      </trkpt>
      <trkpt lat="43.55277" lon="5.62138">
        <ele>507.29998779297</ele>
        <time>2013-05-10T15:31:44Z</time>
      </trkpt>
      <trkpt lat="43.5528" lon="5.62099">
        <ele>496.90002441406</ele>
        <time>2013-05-10T15:32:09Z</time>
      </trkpt>
      <trkpt lat="43.55297" lon="5.62061">
        <ele>489.59997558594</ele>
        <time>2013-05-10T15:32:38Z</time>
      </trkpt>
      <trkpt lat="43.55337" lon="5.62055">
        <ele>484.59997558594</ele>
        <time>2013-05-10T15:33:10Z</time>
      </trkpt>
      <trkpt lat="43.5536" lon="5.62004">
        <ele>486.40002441406</ele>
        <time>2013-05-10T15:33:44Z</time>
      </trkpt>
      <trkpt lat="43.55393" lon="5.61949">
        <ele>492.90002441406</ele>
        <time>2013-05-10T15:34:19Z</time>
      </trkpt>
      <trkpt lat="43.55397" lon="5.61919">
        <ele>479.90002441406</ele>
        <time>2013-05-10T15:34:53Z</time>
      </trkpt>
      <trkpt lat="43.55405" lon="5.61895">
        <ele>474.09997558594</ele>
        <time>2013-05-10T15:35:19Z</time>
      </trkpt>
      <trkpt lat="43.5544" lon="5.61895">
        <ele>476.29998779297</ele>
        <time>2013-05-10T15:35:52Z</time>
      </trkpt>
      <trkpt lat="43.55458" lon="5.61906">
        <ele>474.70001220703</ele>
        <time>2013-05-10T15:36:27Z</time>
      </trkpt>
    </trkseg>
  </trk>
</gpx>